PWSweather.com
Personal Weather Stations
Station Observations

GerenaES 41860

Lat: 37.530965, Lon: -6.150384

Elevation: 120

Station Type: Vantage VUE

http://meteogerena.blogspot.com.es/

High Low Average
Temperature 63.3°F17.4°C 54.5°F12.5°C 59.7°F15.4°C
Dew Point 57.4°F14.1°C 52.5°F11.4°C 55.7°F13.2°C
Winds 27.0 mph 43.5 kmh 8.0 mph 12.9 kmh 16.0 mph NE25.7 kmh NE
Wind Gusts 45.0 mph72.4 kmh 14.0 mph22.5 kmh 30.0 mph48.3 kmh
Humidity 95% 74% 87%
Pressure 29.34 in993.6 mb 29.12 in986.1 mb -
Precipitation 2.00 in50.8 mm - -
Hour Temp Dew Point Humidity Winds Wind Gusts Pressure Precip Precip Rate Daily Precip Total
12:00 AM 59.4°F15.2°C 56.4°F13.6°C 90% 14.0 mph NE22.5 kmh NE 26.0 mph41.8 kmh 29.36 in994.2 mb 0.01 in0.3 mm 0.00 in0.0 mm 0.01 in0.3 mm
12:01 AM 59.4°F15.2°C 56.4°F13.6°C 90% 14.0 mph NE22.5 kmh NE 26.0 mph41.8 kmh 29.36 in994.2 mb 0.01 in0.3 mm 0.00 in0.0 mm 0.01 in0.3 mm
12:02 AM 59.4°F15.2°C 56.4°F13.6°C 90% 14.0 mph NE22.5 kmh NE 26.0 mph41.8 kmh 29.36 in994.2 mb 0.01 in0.3 mm 0.00 in0.0 mm 0.01 in0.3 mm
12:03 AM 59.4°F15.2°C 56.4°F13.6°C 90% 14.0 mph NE22.5 kmh NE 26.0 mph41.8 kmh 29.36 in994.2 mb 0.00 in0.0 mm 0.00 in0.0 mm 0.01 in0.3 mm
12:04 AM 59.4°F15.2°C 56.7°F13.7°C 91% 14.0 mph NE22.5 kmh NE 26.0 mph41.8 kmh 29.36 in994.2 mb 0.00 in0.0 mm 0.00 in0.0 mm 0.01 in0.3 mm
12:05 AM 59.4°F15.2°C 56.7°F13.7°C 91% 14.0 mph NE22.5 kmh NE 26.0 mph41.8 kmh 29.36 in994.2 mb 0.00 in0.0 mm 0.00 in0.0 mm 0.01 in0.3 mm
12:06 AM 59.4°F15.2°C 56.7°F13.7°C 91% 14.0 mph NE22.5 kmh NE 35.0 mph56.3 kmh 29.36 in994.2 mb 0.00 in0.0 mm 0.00 in0.0 mm 0.01 in0.3 mm
12:07 AM 59.4°F15.2°C 56.4°F13.6°C 90% 14.0 mph NE22.5 kmh NE 35.0 mph56.3 kmh 29.36 in994.2 mb 0.00 in0.0 mm 0.00 in0.0 mm 0.01 in0.3 mm
12:08 AM 59.4°F15.2°C 56.4°F13.6°C 90% 14.0 mph NE22.5 kmh NE 35.0 mph56.3 kmh 29.36 in994.2 mb 0.00 in0.0 mm 0.00 in0.0 mm 0.01 in0.3 mm
12:09 AM 59.4°F15.2°C 56.4°F13.6°C 90% 14.0 mph NE22.5 kmh NE 35.0 mph56.3 kmh 29.36 in994.2 mb 0.00 in0.0 mm 0.00 in0.0 mm 0.01 in0.3 mm
12:10 AM 59.4°F15.2°C 56.4°F13.6°C 90% 14.0 mph NE22.5 kmh NE 35.0 mph56.3 kmh 29.36 in994.2 mb 0.00 in0.0 mm 0.00 in0.0 mm 0.01 in0.3 mm
12:11 AM 59.4°F15.2°C 56.4°F13.6°C 90% 14.0 mph NE22.5 kmh NE 35.0 mph56.3 kmh 29.36 in994.2 mb 0.00 in0.0 mm 0.00 in0.0 mm 0.01 in0.3 mm
12:12 AM 59.4°F15.2°C 56.4°F13.6°C 90% 14.0 mph NE22.5 kmh NE 35.0 mph56.3 kmh 29.36 in994.2 mb 0.00 in0.0 mm 0.00 in0.0 mm 0.01 in0.3 mm
12:13 AM 59.4°F15.2°C 56.4°F13.6°C 90% 15.0 mph NE24.1 kmh NE 35.0 mph56.3 kmh 29.36 in994.2 mb 0.00 in0.0 mm 0.00 in0.0 mm 0.01 in0.3 mm
12:14 AM 59.4°F15.2°C 56.4°F13.6°C 90% 15.0 mph NE24.1 kmh NE 35.0 mph56.3 kmh 29.36 in994.2 mb 0.00 in0.0 mm 0.00 in0.0 mm 0.01 in0.3 mm
12:15 AM 59.4°F15.2°C 56.4°F13.6°C 90% 15.0 mph NE24.1 kmh NE 35.0 mph56.3 kmh 29.36 in994.2 mb 0.00 in0.0 mm 0.00 in0.0 mm 0.01 in0.3 mm
12:16 AM 59.4°F15.2°C 56.4°F13.6°C 90% 15.0 mph NE24.1 kmh NE 28.0 mph45.1 kmh 29.35 in993.9 mb 0.00 in0.0 mm 0.00 in0.0 mm 0.01 in0.3 mm
12:17 AM 59.4°F15.2°C 56.4°F13.6°C 90% 15.0 mph NE24.1 kmh NE 28.0 mph45.1 kmh 29.35 in993.9 mb 0.00 in0.0 mm 0.00 in0.0 mm 0.01 in0.3 mm
12:18 AM 59.4°F15.2°C 56.4°F13.6°C 90% 15.0 mph NE24.1 kmh NE 28.0 mph45.1 kmh 29.35 in993.9 mb 0.00 in0.0 mm 0.00 in0.0 mm 0.01 in0.3 mm
12:19 AM 59.4°F15.2°C 56.7°F13.7°C 91% 16.0 mph NE25.7 kmh NE 28.0 mph45.1 kmh 29.35 in993.9 mb 0.00 in0.0 mm 0.00 in0.0 mm 0.01 in0.3 mm
12:20 AM 59.2°F15.1°C 56.6°F13.7°C 91% 16.0 mph NE25.7 kmh NE 28.0 mph45.1 kmh 29.35 in993.9 mb 0.00 in0.0 mm 0.00 in0.0 mm 0.01 in0.3 mm
12:21 AM 59.2°F15.1°C 56.6°F13.7°C 91% 16.0 mph NE25.7 kmh NE 25.0 mph40.2 kmh 29.35 in993.9 mb 0.00 in0.0 mm 0.00 in0.0 mm 0.01 in0.3 mm
12:22 AM 59.2°F15.1°C 56.6°F13.7°C 91% 16.0 mph NE25.7 kmh NE 25.0 mph40.2 kmh 29.35 in993.9 mb 0.00 in0.0 mm 0.00 in0.0 mm 0.01 in0.3 mm
12:23 AM 59.2°F15.1°C 56.6°F13.7°C 91% 16.0 mph NE25.7 kmh NE 25.0 mph40.2 kmh 29.35 in993.9 mb 0.00 in0.0 mm 0.00 in0.0 mm 0.01 in0.3 mm
12:24 AM 59.2°F15.1°C 56.6°F13.7°C 91% 16.0 mph NE25.7 kmh NE 25.0 mph40.2 kmh 29.35 in993.9 mb 0.00 in0.0 mm 0.00 in0.0 mm 0.01 in0.3 mm
12:25 AM 59.2°F15.1°C 56.6°F13.7°C 91% 15.0 mph NE24.1 kmh NE 25.0 mph40.2 kmh 29.35 in993.9 mb 0.00 in0.0 mm 0.00 in0.0 mm 0.01 in0.3 mm
12:26 AM 59.2°F15.1°C 56.6°F13.7°C 91% 15.0 mph NE24.1 kmh NE 24.0 mph38.6 kmh 29.35 in993.9 mb 0.00 in0.0 mm 0.00 in0.0 mm 0.01 in0.3 mm
12:27 AM 59.2°F15.1°C 56.6°F13.7°C 91% 15.0 mph NE24.1 kmh NE 24.0 mph38.6 kmh 29.35 in993.9 mb 0.00 in0.0 mm 0.00 in0.0 mm 0.01 in0.3 mm
12:28 AM 59.2°F15.1°C 56.6°F13.7°C 91% 15.0 mph NE24.1 kmh NE 24.0 mph38.6 kmh 29.35 in993.9 mb 0.00 in0.0 mm 0.00 in0.0 mm 0.01 in0.3 mm
12:29 AM 59.2°F15.1°C 56.6°F13.7°C 91% 14.0 mph NE22.5 kmh NE 24.0 mph38.6 kmh 29.35 in993.9 mb 0.00 in0.0 mm 0.00 in0.0 mm 0.01 in0.3 mm
12:30 AM 59.2°F15.1°C 56.6°F13.7°C 91% 14.0 mph NE22.5 kmh NE 24.0 mph38.6 kmh 29.35 in993.9 mb 0.00 in0.0 mm 0.00 in0.0 mm 0.01 in0.3 mm
12:31 AM 59.2°F15.1°C 56.6°F13.7°C 91% 14.0 mph NE22.5 kmh NE 24.0 mph38.6 kmh 29.35 in993.9 mb 0.01 in0.3 mm 0.60 in15.2 mm 0.01 in0.3 mm
12:32 AM 59.0°F15.0°C 56.4°F13.6°C 91% 14.0 mph NE22.5 kmh NE 24.0 mph38.6 kmh 29.35 in993.9 mb 0.01 in0.3 mm 0.00 in0.0 mm 0.01 in0.3 mm
12:33 AM 59.0°F15.0°C 56.7°F13.7°C 92% 14.0 mph NE22.5 kmh NE 24.0 mph38.6 kmh 29.35 in993.9 mb 0.01 in0.3 mm 0.00 in0.0 mm 0.01 in0.3 mm
12:34 AM 59.0°F15.0°C 56.7°F13.7°C 92% 13.0 mph NE20.9 kmh NE 22.0 mph35.4 kmh 29.35 in993.9 mb 0.01 in0.3 mm 0.00 in0.0 mm 0.01 in0.3 mm
12:35 AM 58.8°F14.9°C 56.5°F13.6°C 92% 13.0 mph NE20.9 kmh NE 25.0 mph40.2 kmh 29.35 in993.9 mb 0.01 in0.3 mm 0.00 in0.0 mm 0.01 in0.3 mm
12:36 AM 58.8°F14.9°C 56.5°F13.6°C 92% 13.0 mph NE20.9 kmh NE 25.0 mph40.2 kmh 29.35 in993.9 mb 0.02 in0.5 mm 0.60 in15.2 mm 0.02 in0.5 mm
12:37 AM 58.8°F14.9°C 56.5°F13.6°C 92% 13.0 mph NE20.9 kmh NE 25.0 mph40.2 kmh 29.35 in993.9 mb 0.02 in0.5 mm 0.00 in0.0 mm 0.02 in0.5 mm
12:38 AM 58.8°F14.9°C 56.5°F13.6°C 92% 13.0 mph NE20.9 kmh NE 25.0 mph40.2 kmh 29.34 in993.6 mb 0.05 in1.3 mm 1.80 in45.7 mm 0.05 in1.3 mm
12:39 AM 58.8°F14.9°C 56.5°F13.6°C 92% 13.0 mph NE20.9 kmh NE 25.0 mph40.2 kmh 29.34 in993.6 mb 0.06 in1.5 mm 0.60 in15.2 mm 0.06 in1.5 mm
12:40 AM 58.6°F14.8°C 56.3°F13.5°C 92% 13.0 mph NE20.9 kmh NE 25.0 mph40.2 kmh 29.34 in993.6 mb 0.07 in1.8 mm 0.60 in15.2 mm 0.07 in1.8 mm
12:41 AM 58.6°F14.8°C 56.3°F13.5°C 92% 13.0 mph NE20.9 kmh NE 25.0 mph40.2 kmh 29.34 in993.6 mb 0.07 in1.8 mm 0.00 in0.0 mm 0.07 in1.8 mm
12:42 AM 58.6°F14.8°C 56.3°F13.5°C 92% 13.0 mph NE20.9 kmh NE 25.0 mph40.2 kmh 29.34 in993.6 mb 0.07 in1.8 mm 0.00 in0.0 mm 0.07 in1.8 mm
12:43 AM 58.6°F14.8°C 56.3°F13.5°C 92% 13.0 mph NE20.9 kmh NE 25.0 mph40.2 kmh 29.34 in993.6 mb 0.07 in1.8 mm 0.00 in0.0 mm 0.07 in1.8 mm
12:44 AM 58.6°F14.8°C 56.3°F13.5°C 92% 13.0 mph NE20.9 kmh NE 25.0 mph40.2 kmh 29.34 in993.6 mb 0.07 in1.8 mm 0.00 in0.0 mm 0.07 in1.8 mm
12:45 AM 58.6°F14.8°C 56.6°F13.7°C 93% 13.0 mph NE20.9 kmh NE 22.0 mph35.4 kmh 29.34 in993.6 mb 0.07 in1.8 mm 0.00 in0.0 mm 0.07 in1.8 mm
12:46 AM 58.6°F14.8°C 56.6°F13.7°C 93% 13.0 mph NE20.9 kmh NE 22.0 mph35.4 kmh 29.34 in993.6 mb 0.07 in1.8 mm 0.00 in0.0 mm 0.07 in1.8 mm
12:47 AM 58.6°F14.8°C 56.6°F13.7°C 93% 12.0 mph NE19.3 kmh NE 22.0 mph35.4 kmh 29.34 in993.6 mb 0.07 in1.8 mm 0.00 in0.0 mm 0.07 in1.8 mm
12:48 AM 58.6°F14.8°C 56.6°F13.7°C 93% 12.0 mph NE19.3 kmh NE 28.0 mph45.1 kmh 29.34 in993.6 mb 0.07 in1.8 mm 0.00 in0.0 mm 0.07 in1.8 mm
12:49 AM 58.6°F14.8°C 56.3°F13.5°C 92% 12.0 mph NE19.3 kmh NE 28.0 mph45.1 kmh 29.34 in993.6 mb 0.07 in1.8 mm 0.00 in0.0 mm 0.07 in1.8 mm
12:50 AM 58.8°F14.9°C 56.5°F13.6°C 92% 12.0 mph NE19.3 kmh NE 29.0 mph46.7 kmh 29.34 in993.6 mb 0.07 in1.8 mm 0.00 in0.0 mm 0.07 in1.8 mm
12:51 AM 58.8°F14.9°C 56.5°F13.6°C 92% 12.0 mph NE19.3 kmh NE 29.0 mph46.7 kmh 29.34 in993.6 mb 0.07 in1.8 mm 0.00 in0.0 mm 0.07 in1.8 mm
12:52 AM 58.8°F14.9°C 56.5°F13.6°C 92% 12.0 mph NE19.3 kmh NE 29.0 mph46.7 kmh 29.34 in993.6 mb 0.07 in1.8 mm 0.00 in0.0 mm 0.07 in1.8 mm
12:53 AM 58.8°F14.9°C 56.5°F13.6°C 92% 12.0 mph NE19.3 kmh NE 29.0 mph46.7 kmh 29.34 in993.6 mb 0.07 in1.8 mm 0.00 in0.0 mm 0.07 in1.8 mm
12:54 AM 58.8°F14.9°C 56.5°F13.6°C 92% 12.0 mph NE19.3 kmh NE 29.0 mph46.7 kmh 29.34 in993.6 mb 0.07 in1.8 mm 0.00 in0.0 mm 0.07 in1.8 mm
12:55 AM 58.8°F14.9°C 56.5°F13.6°C 92% 12.0 mph NE19.3 kmh NE 29.0 mph46.7 kmh 29.34 in993.6 mb 0.07 in1.8 mm 0.00 in0.0 mm 0.07 in1.8 mm
12:56 AM 59.0°F15.0°C 56.7°F13.7°C 92% 13.0 mph NE20.9 kmh NE 29.0 mph46.7 kmh 29.34 in993.6 mb 0.07 in1.8 mm 0.00 in0.0 mm 0.07 in1.8 mm
12:57 AM 59.0°F15.0°C 56.7°F13.7°C 92% 13.0 mph NE20.9 kmh NE 29.0 mph46.7 kmh 29.34 in993.6 mb 0.07 in1.8 mm 0.00 in0.0 mm 0.07 in1.8 mm
12:58 AM 59.0°F15.0°C 56.4°F13.6°C 91% 14.0 mph NE22.5 kmh NE 30.0 mph48.3 kmh 29.34 in993.6 mb 0.07 in1.8 mm 0.00 in0.0 mm 0.07 in1.8 mm
12:59 AM 59.2°F15.1°C 56.6°F13.7°C 91% 14.0 mph NE22.5 kmh NE 30.0 mph48.3 kmh 29.34 in993.6 mb 0.07 in1.8 mm 0.00 in0.0 mm 0.07 in1.8 mm
01:00 AM 59.2°F15.1°C 56.6°F13.7°C 91% 15.0 mph NE24.1 kmh NE 30.0 mph48.3 kmh 29.34 in993.6 mb 0.07 in1.8 mm 0.00 in0.0 mm 0.07 in1.8 mm
01:01 AM 59.2°F15.1°C 56.6°F13.7°C 91% 15.0 mph NE24.1 kmh NE 30.0 mph48.3 kmh 29.34 in993.6 mb 0.07 in1.8 mm 0.00 in0.0 mm 0.07 in1.8 mm
01:02 AM 59.2°F15.1°C 56.6°F13.7°C 91% 15.0 mph NE24.1 kmh NE 31.0 mph49.9 kmh 29.34 in993.6 mb 0.07 in1.8 mm 0.00 in0.0 mm 0.07 in1.8 mm
01:03 AM 59.2°F15.1°C 56.6°F13.7°C 91% 15.0 mph NE24.1 kmh NE 31.0 mph49.9 kmh 29.34 in993.6 mb 0.07 in1.8 mm 0.00 in0.0 mm 0.07 in1.8 mm
01:04 AM 59.2°F15.1°C 56.6°F13.7°C 91% 15.0 mph NE24.1 kmh NE 31.0 mph49.9 kmh 29.33 in993.2 mb 0.07 in1.8 mm 0.00 in0.0 mm 0.07 in1.8 mm
01:05 AM 59.2°F15.1°C 56.6°F13.7°C 91% 16.0 mph NE25.7 kmh NE 31.0 mph49.9 kmh 29.34 in993.6 mb 0.07 in1.8 mm 0.00 in0.0 mm 0.07 in1.8 mm
01:06 AM 59.2°F15.1°C 56.6°F13.7°C 91% 16.0 mph NE25.7 kmh NE 31.0 mph49.9 kmh 29.34 in993.6 mb 0.07 in1.8 mm 0.00 in0.0 mm 0.07 in1.8 mm
01:07 AM 59.2°F15.1°C 56.6°F13.7°C 91% 16.0 mph NE25.7 kmh NE 31.0 mph49.9 kmh 29.34 in993.6 mb 0.07 in1.8 mm 0.00 in0.0 mm 0.07 in1.8 mm
01:08 AM 59.2°F15.1°C 56.6°F13.7°C 91% 16.0 mph NE25.7 kmh NE 31.0 mph49.9 kmh 29.34 in993.6 mb 0.08 in2.0 mm 0.60 in15.2 mm 0.08 in2.0 mm
01:09 AM 59.2°F15.1°C 56.6°F13.7°C 91% 16.0 mph NE25.7 kmh NE 31.0 mph49.9 kmh 29.34 in993.6 mb 0.08 in2.0 mm 0.00 in0.0 mm 0.08 in2.0 mm
01:10 AM 59.2°F15.1°C 56.6°F13.7°C 91% 16.0 mph NE25.7 kmh NE 31.0 mph49.9 kmh 29.34 in993.6 mb 0.08 in2.0 mm 0.00 in0.0 mm 0.08 in2.0 mm
01:11 AM 59.2°F15.1°C 56.6°F13.7°C 91% 16.0 mph NE25.7 kmh NE 31.0 mph49.9 kmh 29.33 in993.2 mb 0.08 in2.0 mm 0.00 in0.0 mm 0.08 in2.0 mm
01:12 AM 59.2°F15.1°C 56.6°F13.7°C 91% 16.0 mph NE25.7 kmh NE 31.0 mph49.9 kmh 29.33 in993.2 mb 0.08 in2.0 mm 0.00 in0.0 mm 0.08 in2.0 mm
01:13 AM 59.2°F15.1°C 56.6°F13.7°C 91% 16.0 mph NE25.7 kmh NE 27.0 mph43.5 kmh 29.33 in993.2 mb 0.08 in2.0 mm 0.00 in0.0 mm 0.08 in2.0 mm
01:14 AM 59.2°F15.1°C 56.6°F13.7°C 91% 16.0 mph NE25.7 kmh NE 26.0 mph41.8 kmh 29.34 in993.6 mb 0.08 in2.0 mm 0.00 in0.0 mm 0.08 in2.0 mm
01:15 AM 59.2°F15.1°C 56.6°F13.7°C 91% 16.0 mph NE25.7 kmh NE 26.0 mph41.8 kmh 29.34 in993.6 mb 0.08 in2.0 mm 0.00 in0.0 mm 0.08 in2.0 mm
01:16 AM 59.2°F15.1°C 56.6°F13.7°C 91% 15.0 mph NE24.1 kmh NE 26.0 mph41.8 kmh 29.33 in993.2 mb 0.08 in2.0 mm 0.00 in0.0 mm 0.08 in2.0 mm
01:17 AM 59.2°F15.1°C 56.6°F13.7°C 91% 15.0 mph NE24.1 kmh NE 26.0 mph41.8 kmh 29.33 in993.2 mb 0.08 in2.0 mm 0.00 in0.0 mm 0.08 in2.0 mm
01:18 AM 59.2°F15.1°C 56.6°F13.7°C 91% 15.0 mph NE24.1 kmh NE 26.0 mph41.8 kmh 29.33 in993.2 mb 0.08 in2.0 mm 0.00 in0.0 mm 0.08 in2.0 mm
01:19 AM 59.2°F15.1°C 56.6°F13.7°C 91% 15.0 mph NE24.1 kmh NE 24.0 mph38.6 kmh 29.33 in993.2 mb 0.08 in2.0 mm 0.00 in0.0 mm 0.08 in2.0 mm
01:20 AM 59.0°F15.0°C 56.4°F13.6°C 91% 15.0 mph NE24.1 kmh NE 24.0 mph38.6 kmh 29.33 in993.2 mb 0.09 in2.3 mm 0.60 in15.2 mm 0.09 in2.3 mm
01:21 AM 59.0°F15.0°C 56.4°F13.6°C 91% 15.0 mph NE24.1 kmh NE 24.0 mph38.6 kmh 29.33 in993.2 mb 0.09 in2.3 mm 0.00 in0.0 mm 0.09 in2.3 mm
01:22 AM 59.0°F15.0°C 56.4°F13.6°C 91% 14.0 mph NE22.5 kmh NE 24.0 mph38.6 kmh 29.33 in993.2 mb 0.09 in2.3 mm 0.00 in0.0 mm 0.09 in2.3 mm
01:23 AM 59.0°F15.0°C 56.4°F13.6°C 91% 14.0 mph NE22.5 kmh NE 24.0 mph38.6 kmh 29.33 in993.2 mb 0.09 in2.3 mm 0.00 in0.0 mm 0.09 in2.3 mm
01:24 AM 58.8°F14.9°C 56.5°F13.6°C 92% 14.0 mph NE22.5 kmh NE 24.0 mph38.6 kmh 29.33 in993.2 mb 0.09 in2.3 mm 0.00 in0.0 mm 0.09 in2.3 mm
01:25 AM 58.8°F14.9°C 56.5°F13.6°C 92% 13.0 mph NE20.9 kmh NE 24.0 mph38.6 kmh 29.33 in993.2 mb 0.09 in2.3 mm 0.00 in0.0 mm 0.09 in2.3 mm
01:26 AM 58.8°F14.9°C 56.5°F13.6°C 92% 13.0 mph NE20.9 kmh NE 26.0 mph41.8 kmh 29.33 in993.2 mb 0.09 in2.3 mm 0.00 in0.0 mm 0.09 in2.3 mm
01:27 AM 58.8°F14.9°C 56.5°F13.6°C 92% 13.0 mph NE20.9 kmh NE 26.0 mph41.8 kmh 29.33 in993.2 mb 0.09 in2.3 mm 0.00 in0.0 mm 0.09 in2.3 mm
01:28 AM 58.8°F14.9°C 56.5°F13.6°C 92% 13.0 mph NE20.9 kmh NE 26.0 mph41.8 kmh 29.33 in993.2 mb 0.09 in2.3 mm 0.00 in0.0 mm 0.09 in2.3 mm
01:29 AM 58.8°F14.9°C 56.5°F13.6°C 92% 12.0 mph NE19.3 kmh NE 26.0 mph41.8 kmh 29.33 in993.2 mb 0.09 in2.3 mm 0.00 in0.0 mm 0.09 in2.3 mm
01:30 AM 58.8°F14.9°C 56.5°F13.6°C 92% 12.0 mph NE19.3 kmh NE 26.0 mph41.8 kmh 29.33 in993.2 mb 0.08 in2.0 mm 0.00 in0.0 mm 0.09 in2.3 mm
01:31 AM 58.8°F14.9°C 56.5°F13.6°C 92% 12.0 mph NE19.3 kmh NE 26.0 mph41.8 kmh 29.33 in993.2 mb 0.08 in2.0 mm 0.00 in0.0 mm 0.09 in2.3 mm
01:32 AM 58.8°F14.9°C 56.5°F13.6°C 92% 12.0 mph NE19.3 kmh NE 26.0 mph41.8 kmh 29.33 in993.2 mb 0.08 in2.0 mm 0.00 in0.0 mm 0.09 in2.3 mm
01:33 AM 58.8°F14.9°C 56.5°F13.6°C 92% 12.0 mph NE19.3 kmh NE 26.0 mph41.8 kmh 29.33 in993.2 mb 0.08 in2.0 mm 0.00 in0.0 mm 0.09 in2.3 mm
01:34 AM 58.8°F14.9°C 56.5°F13.6°C 92% 12.0 mph NE19.3 kmh NE 26.0 mph41.8 kmh 29.33 in993.2 mb 0.08 in2.0 mm 0.00 in0.0 mm 0.09 in2.3 mm
01:35 AM 58.8°F14.9°C 56.5°F13.6°C 92% 12.0 mph NE19.3 kmh NE 26.0 mph41.8 kmh 29.32 in992.9 mb 0.07 in1.8 mm 0.00 in0.0 mm 0.09 in2.3 mm
01:36 AM 58.8°F14.9°C 56.5°F13.6°C 92% 12.0 mph NE19.3 kmh NE 26.0 mph41.8 kmh 29.32 in992.9 mb 0.07 in1.8 mm 0.00 in0.0 mm 0.09 in2.3 mm
01:37 AM 59.0°F15.0°C 56.7°F13.7°C 92% 12.0 mph NE19.3 kmh NE 26.0 mph41.8 kmh 29.32 in992.9 mb 0.08 in2.0 mm 0.60 in15.2 mm 0.09 in2.3 mm
01:38 AM 59.0°F15.0°C 56.7°F13.7°C 92% 12.0 mph NE19.3 kmh NE 26.0 mph41.8 kmh 29.32 in992.9 mb 0.05 in1.3 mm 0.00 in0.0 mm 0.09 in2.3 mm
01:39 AM 59.0°F15.0°C 56.7°F13.7°C 92% 13.0 mph NE20.9 kmh NE 26.0 mph41.8 kmh 29.32 in992.9 mb 0.02 in0.5 mm 0.00 in0.0 mm 0.09 in2.3 mm
01:40 AM 59.0°F15.0°C 56.7°F13.7°C 92% 13.0 mph NE20.9 kmh NE 26.0 mph41.8 kmh 29.32 in992.9 mb 0.02 in0.5 mm 0.00 in0.0 mm 0.09 in2.3 mm
01:41 AM 59.0°F15.0°C 56.7°F13.7°C 92% 13.0 mph NE20.9 kmh NE 26.0 mph41.8 kmh 29.32 in992.9 mb 0.02 in0.5 mm 0.00 in0.0 mm 0.09 in2.3 mm
01:42 AM 58.8°F14.9°C 56.5°F13.6°C 92% 13.0 mph NE20.9 kmh NE 26.0 mph41.8 kmh 29.32 in992.9 mb 0.02 in0.5 mm 0.00 in0.0 mm 0.09 in2.3 mm
01:43 AM 58.8°F14.9°C 56.5°F13.6°C 92% 13.0 mph NE20.9 kmh NE 26.0 mph41.8 kmh 29.32 in992.9 mb 0.02 in0.5 mm 0.00 in0.0 mm 0.09 in2.3 mm
01:44 AM 58.8°F14.9°C 56.5°F13.6°C 92% 13.0 mph NE20.9 kmh NE 26.0 mph41.8 kmh 29.32 in992.9 mb 0.02 in0.5 mm 0.00 in0.0 mm 0.09 in2.3 mm
01:45 AM 58.8°F14.9°C 56.5°F13.6°C 92% 13.0 mph NE20.9 kmh NE 25.0 mph40.2 kmh 29.32 in992.9 mb 0.02 in0.5 mm 0.00 in0.0 mm 0.09 in2.3 mm
01:46 AM 58.8°F14.9°C 56.5°F13.6°C 92% 13.0 mph NE20.9 kmh NE 25.0 mph40.2 kmh 29.32 in992.9 mb 0.02 in0.5 mm 0.00 in0.0 mm 0.09 in2.3 mm
01:47 AM 58.8°F14.9°C 56.5°F13.6°C 92% 13.0 mph NE20.9 kmh NE 25.0 mph40.2 kmh 29.32 in992.9 mb 0.03 in0.8 mm 0.60 in15.2 mm 0.10 in2.5 mm
01:48 AM 58.8°F14.9°C 56.5°F13.6°C 92% 13.0 mph NE20.9 kmh NE 25.0 mph40.2 kmh 29.32 in992.9 mb 0.03 in0.8 mm 0.00 in0.0 mm 0.10 in2.5 mm
01:49 AM 58.8°F14.9°C 56.5°F13.6°C 92% 13.0 mph NE20.9 kmh NE 25.0 mph40.2 kmh 29.32 in992.9 mb 0.03 in0.8 mm 0.00 in0.0 mm 0.10 in2.5 mm
01:50 AM 58.8°F14.9°C 56.5°F13.6°C 92% 13.0 mph NE20.9 kmh NE 25.0 mph40.2 kmh 29.33 in993.2 mb 0.03 in0.8 mm 0.00 in0.0 mm 0.10 in2.5 mm
01:51 AM 58.8°F14.9°C 56.5°F13.6°C 92% 13.0 mph NE20.9 kmh NE 25.0 mph40.2 kmh 29.32 in992.9 mb 0.04 in1.0 mm 0.60 in15.2 mm 0.11 in2.8 mm
01:52 AM 58.8°F14.9°C 56.5°F13.6°C 92% 13.0 mph NE20.9 kmh NE 25.0 mph40.2 kmh 29.33 in993.2 mb 0.04 in1.0 mm 0.00 in0.0 mm 0.11 in2.8 mm
01:53 AM 58.8°F14.9°C 56.5°F13.6°C 92% 14.0 mph NE22.5 kmh NE 28.0 mph45.1 kmh 29.33 in993.2 mb 0.05 in1.3 mm 0.60 in15.2 mm 0.12 in3.0 mm
01:54 AM 58.8°F14.9°C 56.5°F13.6°C 92% 14.0 mph NE22.5 kmh NE 29.0 mph46.7 kmh 29.33 in993.2 mb 0.05 in1.3 mm 0.00 in0.0 mm 0.12 in3.0 mm
01:55 AM 58.8°F14.9°C 56.5°F13.6°C 92% 14.0 mph NE22.5 kmh NE 29.0 mph46.7 kmh 29.33 in993.2 mb 0.05 in1.3 mm 0.00 in0.0 mm 0.12 in3.0 mm
01:56 AM 58.8°F14.9°C 56.5°F13.6°C 92% 14.0 mph NE22.5 kmh NE 29.0 mph46.7 kmh 29.33 in993.2 mb 0.05 in1.3 mm 0.00 in0.0 mm 0.12 in3.0 mm
01:57 AM 58.8°F14.9°C 56.5°F13.6°C 92% 14.0 mph NE22.5 kmh NE 29.0 mph46.7 kmh 29.34 in993.6 mb 0.06 in1.5 mm 0.60 in15.2 mm 0.13 in3.3 mm
01:58 AM 58.8°F14.9°C 56.5°F13.6°C 92% 15.0 mph NE24.1 kmh NE 29.0 mph46.7 kmh 29.34 in993.6 mb 0.06 in1.5 mm 0.00 in0.0 mm 0.13 in3.3 mm
01:59 AM 58.8°F14.9°C 56.5°F13.6°C 92% 15.0 mph NE24.1 kmh NE 43.0 mph69.2 kmh 29.33 in993.2 mb 0.06 in1.5 mm 0.00 in0.0 mm 0.13 in3.3 mm
02:00 AM 58.6°F14.8°C 55.7°F13.2°C 90% 15.0 mph NE24.1 kmh NE 43.0 mph69.2 kmh 29.33 in993.2 mb 0.06 in1.5 mm 0.00 in0.0 mm 0.13 in3.3 mm
02:01 AM 58.6°F14.8°C 55.4°F13.0°C 89% 15.0 mph NE24.1 kmh NE 43.0 mph69.2 kmh 29.33 in993.2 mb 0.06 in1.5 mm 0.00 in0.0 mm 0.13 in3.3 mm
02:02 AM 58.5°F14.7°C 55.2°F12.9°C 89% 16.0 mph NE25.7 kmh NE 43.0 mph69.2 kmh 29.33 in993.2 mb 0.07 in1.8 mm 0.60 in15.2 mm 0.14 in3.6 mm
02:03 AM 58.5°F14.7°C 55.5°F13.1°C 90% 16.0 mph NE25.7 kmh NE 43.0 mph69.2 kmh 29.33 in993.2 mb 0.08 in2.0 mm 0.60 in15.2 mm 0.15 in3.8 mm
02:04 AM 58.3°F14.6°C 55.1°F12.8°C 89% 16.0 mph NE25.7 kmh NE 43.0 mph69.2 kmh 29.34 in993.6 mb 0.09 in2.3 mm 0.60 in15.2 mm 0.17 in4.3 mm
02:05 AM 57.9°F14.4°C 54.7°F12.6°C 89% 17.0 mph NE27.4 kmh NE 43.0 mph69.2 kmh 29.33 in993.2 mb 0.11 in2.8 mm 1.20 in30.5 mm 0.18 in4.6 mm
02:06 AM 57.4°F14.1°C 53.5°F11.9°C 87% 17.0 mph NE27.4 kmh NE 43.0 mph69.2 kmh 29.33 in993.2 mb 0.12 in3.0 mm 0.60 in15.2 mm 0.19 in4.8 mm
02:07 AM 57.0°F13.9°C 52.6°F11.4°C 85% 17.0 mph NE27.4 kmh NE 43.0 mph69.2 kmh 29.33 in993.2 mb 0.12 in3.0 mm 0.00 in0.0 mm 0.20 in5.1 mm
02:08 AM 56.8°F13.8°C 52.7°F11.5°C 86% 18.0 mph NE29.0 kmh NE 43.0 mph69.2 kmh 29.34 in993.6 mb 0.12 in3.0 mm 0.00 in0.0 mm 0.20 in5.1 mm
02:09 AM 56.7°F13.7°C 53.1°F11.7°C 88% 18.0 mph NE29.0 kmh NE 43.0 mph69.2 kmh 29.34 in993.6 mb 0.13 in3.3 mm 0.60 in15.2 mm 0.21 in5.3 mm
02:10 AM 56.7°F13.7°C 53.5°F11.9°C 89% 18.0 mph NE29.0 kmh NE 32.0 mph51.5 kmh 29.33 in993.2 mb 0.14 in3.6 mm 0.60 in15.2 mm 0.22 in5.6 mm
02:11 AM 56.5°F13.6°C 53.3°F11.8°C 89% 18.0 mph NE29.0 kmh NE 31.0 mph49.9 kmh 29.34 in993.6 mb 0.15 in3.8 mm 0.60 in15.2 mm 0.23 in5.8 mm
02:12 AM 56.5°F13.6°C 53.6°F12.0°C 90% 18.0 mph NE29.0 kmh NE 32.0 mph51.5 kmh 29.33 in993.2 mb 0.17 in4.3 mm 1.20 in30.5 mm 0.24 in6.1 mm
02:13 AM 56.5°F13.6°C 53.9°F12.2°C 91% 18.0 mph NE29.0 kmh NE 32.0 mph51.5 kmh 29.33 in993.2 mb 0.17 in4.3 mm 0.00 in0.0 mm 0.25 in6.4 mm
02:14 AM 56.3°F13.5°C 53.7°F12.1°C 91% 18.0 mph NE29.0 kmh NE 32.0 mph51.5 kmh 29.33 in993.2 mb 0.18 in4.6 mm 0.60 in15.2 mm 0.26 in6.6 mm
02:15 AM 56.1°F13.4°C 53.5°F11.9°C 91% 18.0 mph NE29.0 kmh NE 32.0 mph51.5 kmh 29.33 in993.2 mb 0.19 in4.8 mm 0.60 in15.2 mm 0.27 in6.9 mm
02:16 AM 56.1°F13.4°C 53.5°F11.9°C 91% 18.0 mph NE29.0 kmh NE 32.0 mph51.5 kmh 29.34 in993.6 mb 0.20 in5.1 mm 0.60 in15.2 mm 0.28 in7.1 mm
02:17 AM 56.1°F13.4°C 53.8°F12.1°C 92% 18.0 mph NE29.0 kmh NE 32.0 mph51.5 kmh 29.34 in993.6 mb 0.21 in5.3 mm 0.60 in15.2 mm 0.29 in7.4 mm
02:18 AM 55.9°F13.3°C 53.6°F12.0°C 92% 18.0 mph NE29.0 kmh NE 32.0 mph51.5 kmh 29.33 in993.2 mb 0.25 in6.4 mm 2.40 in61.0 mm 0.33 in8.4 mm
02:19 AM 55.9°F13.3°C 53.9°F12.2°C 93% 18.0 mph NNE29.0 kmh NNE 32.0 mph51.5 kmh 29.33 in993.2 mb 0.26 in6.6 mm 0.60 in15.2 mm 0.34 in8.6 mm
02:20 AM 55.8°F13.2°C 53.8°F12.1°C 93% 17.0 mph NNE27.4 kmh NNE 32.0 mph51.5 kmh 29.33 in993.2 mb 0.25 in6.4 mm 0.00 in0.0 mm 0.34 in8.6 mm
02:21 AM 55.8°F13.2°C 53.8°F12.1°C 93% 17.0 mph NNE27.4 kmh NNE 32.0 mph51.5 kmh 29.34 in993.6 mb 0.26 in6.6 mm 0.60 in15.2 mm 0.35 in8.9 mm
02:42 AM 54.7°F12.6°C 52.7°F11.5°C 93% 9.0 mph NE14.5 kmh NE 19.0 mph30.6 kmh 29.31 in992.6 mb 0.48 in12.2 mm 0.63 in16.0 mm 0.57 in14.5 mm
02:43 AM 54.7°F12.6°C 52.7°F11.5°C 93% 9.0 mph NE14.5 kmh NE 19.0 mph30.6 kmh 29.31 in992.6 mb 0.50 in12.7 mm 1.20 in30.5 mm 0.60 in15.2 mm
02:44 AM 54.7°F12.6°C 52.7°F11.5°C 93% 9.0 mph NE14.5 kmh NE 19.0 mph30.6 kmh 29.31 in992.6 mb 0.54 in13.7 mm 2.40 in61.0 mm 0.63 in16.0 mm
02:45 AM 54.7°F12.6°C 52.7°F11.5°C 93% 10.0 mph NE16.1 kmh NE 20.0 mph32.2 kmh 29.31 in992.6 mb 0.60 in15.2 mm 3.60 in91.4 mm 0.69 in17.5 mm
02:46 AM 54.7°F12.6°C 52.7°F11.5°C 93% 10.0 mph NE16.1 kmh NE 20.0 mph32.2 kmh 29.32 in992.9 mb 0.61 in15.5 mm 0.60 in15.2 mm 0.71 in18.0 mm
02:47 AM 54.7°F12.6°C 52.7°F11.5°C 93% 10.0 mph NE16.1 kmh NE 20.0 mph32.2 kmh 29.32 in992.9 mb 0.63 in16.0 mm 1.20 in30.5 mm 0.73 in18.5 mm
02:48 AM 54.5°F12.5°C 52.5°F11.4°C 93% 10.0 mph NE16.1 kmh NE 20.0 mph32.2 kmh 29.32 in992.9 mb 0.65 in16.5 mm 1.20 in30.5 mm 0.76 in19.3 mm
02:49 AM 54.5°F12.5°C 52.5°F11.4°C 93% 10.0 mph NE16.1 kmh NE 20.0 mph32.2 kmh 29.32 in992.9 mb 0.69 in17.5 mm 2.40 in61.0 mm 0.79 in20.1 mm
02:50 AM 54.5°F12.5°C 52.8°F11.6°C 94% 11.0 mph NE17.7 kmh NE 20.0 mph32.2 kmh 29.32 in992.9 mb 0.69 in17.5 mm 0.00 in0.0 mm 0.80 in20.3 mm
02:51 AM 54.5°F12.5°C 52.8°F11.6°C 94% 11.0 mph NE17.7 kmh NE 20.0 mph32.2 kmh 29.32 in992.9 mb 0.72 in18.3 mm 1.80 in45.7 mm 0.83 in21.1 mm
02:52 AM 54.5°F12.5°C 52.8°F11.6°C 94% 11.0 mph NE17.7 kmh NE 20.0 mph32.2 kmh 29.31 in992.6 mb 0.74 in18.8 mm 1.20 in30.5 mm 0.86 in21.8 mm
02:53 AM 54.5°F12.5°C 52.8°F11.6°C 94% 11.0 mph NE17.7 kmh NE 20.0 mph32.2 kmh 29.32 in992.9 mb 0.76 in19.3 mm 1.20 in30.5 mm 0.88 in22.4 mm
02:54 AM 54.7°F12.6°C 53.0°F11.7°C 94% 11.0 mph NE17.7 kmh NE 20.0 mph32.2 kmh 29.32 in992.9 mb 0.77 in19.6 mm 0.60 in15.2 mm 0.89 in22.6 mm
02:55 AM 54.7°F12.6°C 53.0°F11.7°C 94% 11.0 mph NE17.7 kmh NE 17.0 mph27.4 kmh 29.31 in992.6 mb 0.79 in20.1 mm 1.20 in30.5 mm 0.91 in23.1 mm
02:56 AM 54.7°F12.6°C 53.0°F11.7°C 94% 10.0 mph NE16.1 kmh NE 17.0 mph27.4 kmh 29.31 in992.6 mb 0.79 in20.1 mm 0.00 in0.0 mm 0.91 in23.1 mm
02:57 AM 54.7°F12.6°C 53.0°F11.7°C 94% 10.0 mph NE16.1 kmh NE 17.0 mph27.4 kmh 29.31 in992.6 mb 0.80 in20.3 mm 0.60 in15.2 mm 0.92 in23.4 mm
02:58 AM 54.5°F12.5°C 52.8°F11.6°C 94% 10.0 mph NE16.1 kmh NE 17.0 mph27.4 kmh 29.31 in992.6 mb 0.79 in20.1 mm 0.00 in0.0 mm 0.92 in23.4 mm
02:59 AM 54.7°F12.6°C 53.0°F11.7°C 94% 9.0 mph NE14.5 kmh NE 15.0 mph24.1 kmh 29.32 in992.9 mb 0.80 in20.3 mm 0.60 in15.2 mm 0.93 in23.6 mm
03:00 AM 54.5°F12.5°C 52.8°F11.6°C 94% 9.0 mph NE14.5 kmh NE 14.0 mph22.5 kmh 29.31 in992.6 mb 0.80 in20.3 mm 0.00 in0.0 mm 0.93 in23.6 mm
03:01 AM 54.7°F12.6°C 53.0°F11.7°C 94% 8.0 mph NE12.9 kmh NE 16.0 mph25.7 kmh 29.31 in992.6 mb 0.80 in20.3 mm 0.00 in0.0 mm 0.94 in23.9 mm
03:02 AM 54.7°F12.6°C 53.0°F11.7°C 94% 8.0 mph NE12.9 kmh NE 19.0 mph30.6 kmh 29.31 in992.6 mb 0.80 in20.3 mm 0.00 in0.0 mm 0.94 in23.9 mm
03:03 AM 54.7°F12.6°C 53.0°F11.7°C 94% 8.0 mph NE12.9 kmh NE 19.0 mph30.6 kmh 29.31 in992.6 mb 0.80 in20.3 mm 0.00 in0.0 mm 0.96 in24.4 mm
03:04 AM 54.9°F12.7°C 53.2°F11.8°C 94% 8.0 mph NE12.9 kmh NE 19.0 mph30.6 kmh 29.31 in992.6 mb 0.80 in20.3 mm 0.00 in0.0 mm 0.98 in24.9 mm
03:05 AM 54.9°F12.7°C 53.2°F11.8°C 94% 8.0 mph NE12.9 kmh NE 19.0 mph30.6 kmh 29.30 in992.2 mb 0.80 in20.3 mm 0.00 in0.0 mm 0.99 in25.1 mm
03:06 AM 54.9°F12.7°C 53.2°F11.8°C 94% 8.0 mph NE12.9 kmh NE 22.0 mph35.4 kmh 29.31 in992.6 mb 0.81 in20.6 mm 0.60 in15.2 mm 1.01 in25.7 mm
03:07 AM 54.9°F12.7°C 53.2°F11.8°C 94% 8.0 mph NE12.9 kmh NE 22.0 mph35.4 kmh 29.30 in992.2 mb 0.83 in21.1 mm 1.20 in30.5 mm 1.02 in25.9 mm
03:08 AM 54.9°F12.7°C 53.2°F11.8°C 94% 9.0 mph NE14.5 kmh NE 22.0 mph35.4 kmh 29.30 in992.2 mb 0.82 in20.8 mm 0.00 in0.0 mm 1.03 in26.2 mm
03:09 AM 54.9°F12.7°C 53.2°F11.8°C 94% 9.0 mph NE14.5 kmh NE 22.0 mph35.4 kmh 29.30 in992.2 mb 0.83 in21.1 mm 0.60 in15.2 mm 1.06 in26.9 mm
03:10 AM 54.9°F12.7°C 53.2°F11.8°C 94% 10.0 mph NE16.1 kmh NE 22.0 mph35.4 kmh 29.30 in992.2 mb 0.83 in21.1 mm 0.00 in0.0 mm 1.06 in26.9 mm
03:11 AM 54.9°F12.7°C 53.2°F11.8°C 94% 10.0 mph NE16.1 kmh NE 22.0 mph35.4 kmh 29.30 in992.2 mb 0.83 in21.1 mm 0.00 in0.0 mm 1.08 in27.4 mm
03:12 AM 54.9°F12.7°C 53.5°F11.9°C 95% 11.0 mph NE17.7 kmh NE 22.0 mph35.4 kmh 29.29 in991.9 mb 0.83 in21.1 mm 0.00 in0.0 mm 1.09 in27.7 mm
03:13 AM 54.9°F12.7°C 53.5°F11.9°C 95% 11.0 mph NE17.7 kmh NE 22.0 mph35.4 kmh 29.29 in991.9 mb 0.83 in21.1 mm 0.00 in0.0 mm 1.09 in27.7 mm
03:14 AM 54.9°F12.7°C 53.5°F11.9°C 95% 11.0 mph NE17.7 kmh NE 22.0 mph35.4 kmh 29.29 in991.9 mb 0.83 in21.1 mm 0.00 in0.0 mm 1.10 in27.9 mm
03:15 AM 54.9°F12.7°C 53.5°F11.9°C 95% 11.0 mph NE17.7 kmh NE 22.0 mph35.4 kmh 29.29 in991.9 mb 0.83 in21.1 mm 0.00 in0.0 mm 1.11 in28.2 mm
03:16 AM 54.9°F12.7°C 53.5°F11.9°C 95% 11.0 mph NE17.7 kmh NE 18.0 mph29.0 kmh 29.29 in991.9 mb 0.83 in21.1 mm 0.00 in0.0 mm 1.13 in28.7 mm
03:17 AM 55.0°F12.8°C 53.6°F12.0°C 95% 11.0 mph NE17.7 kmh NE 20.0 mph32.2 kmh 29.28 in991.5 mb 0.81 in20.6 mm 0.00 in0.0 mm 1.14 in29.0 mm
07:39 AM 58.1°F14.5°C 55.5°F13.1°C 91% 16.0 mph NNE25.7 kmh NNE 23.0 mph37.0 kmh 29.15 in987.1 mb 0.02 in0.5 mm 0.05 in1.3 mm 1.93 in49.0 mm
07:40 AM 58.1°F14.5°C 55.5°F13.1°C 91% 16.0 mph NNE25.7 kmh NNE 22.0 mph35.4 kmh 29.15 in987.1 mb 0.02 in0.5 mm 0.00 in0.0 mm 1.93 in49.0 mm
07:41 AM 58.1°F14.5°C 55.5°F13.1°C 91% 16.0 mph NE25.7 kmh NE 22.0 mph35.4 kmh 29.15 in987.1 mb 0.02 in0.5 mm 0.00 in0.0 mm 1.93 in49.0 mm
07:42 AM 58.1°F14.5°C 55.5°F13.1°C 91% 16.0 mph NE25.7 kmh NE 22.0 mph35.4 kmh 29.15 in987.1 mb 0.02 in0.5 mm 0.00 in0.0 mm 1.93 in49.0 mm
07:43 AM 58.1°F14.5°C 55.5°F13.1°C 91% 16.0 mph NE25.7 kmh NE 24.0 mph38.6 kmh 29.15 in987.1 mb 0.02 in0.5 mm 0.00 in0.0 mm 1.93 in49.0 mm
07:44 AM 58.1°F14.5°C 55.5°F13.1°C 91% 15.0 mph NE24.1 kmh NE 24.0 mph38.6 kmh 29.15 in987.1 mb 0.02 in0.5 mm 0.00 in0.0 mm 1.93 in49.0 mm
07:45 AM 58.1°F14.5°C 55.5°F13.1°C 91% 15.0 mph NE24.1 kmh NE 24.0 mph38.6 kmh 29.15 in987.1 mb 0.02 in0.5 mm 0.00 in0.0 mm 1.93 in49.0 mm
07:46 AM 58.1°F14.5°C 55.5°F13.1°C 91% 15.0 mph NE24.1 kmh NE 24.0 mph38.6 kmh 29.15 in987.1 mb 0.02 in0.5 mm 0.00 in0.0 mm 1.93 in49.0 mm
07:47 AM 58.1°F14.5°C 55.5°F13.1°C 91% 15.0 mph NE24.1 kmh NE 24.0 mph38.6 kmh 29.15 in987.1 mb 0.02 in0.5 mm 0.00 in0.0 mm 1.93 in49.0 mm
07:48 AM 58.1°F14.5°C 55.5°F13.1°C 91% 15.0 mph NE24.1 kmh NE 24.0 mph38.6 kmh 29.15 in987.1 mb 0.02 in0.5 mm 0.00 in0.0 mm 1.93 in49.0 mm
07:49 AM 58.3°F14.6°C 55.7°F13.2°C 91% 15.0 mph NE24.1 kmh NE 29.0 mph46.7 kmh 29.15 in987.1 mb 0.02 in0.5 mm 0.00 in0.0 mm 1.93 in49.0 mm
07:50 AM 58.3°F14.6°C 55.7°F13.2°C 91% 15.0 mph NE24.1 kmh NE 29.0 mph46.7 kmh 29.15 in987.1 mb 0.02 in0.5 mm 0.00 in0.0 mm 1.93 in49.0 mm
07:51 AM 58.3°F14.6°C 55.7°F13.2°C 91% 15.0 mph NE24.1 kmh NE 29.0 mph46.7 kmh 29.15 in987.1 mb 0.02 in0.5 mm 0.00 in0.0 mm 1.93 in49.0 mm
07:52 AM 58.3°F14.6°C 55.7°F13.2°C 91% 15.0 mph NE24.1 kmh NE 29.0 mph46.7 kmh 29.15 in987.1 mb 0.02 in0.5 mm 0.00 in0.0 mm 1.93 in49.0 mm
07:53 AM 58.3°F14.6°C 55.7°F13.2°C 91% 15.0 mph NE24.1 kmh NE 29.0 mph46.7 kmh 29.15 in987.1 mb 0.02 in0.5 mm 0.00 in0.0 mm 1.93 in49.0 mm
07:54 AM 58.3°F14.6°C 55.7°F13.2°C 91% 15.0 mph NE24.1 kmh NE 29.0 mph46.7 kmh 29.15 in987.1 mb 0.02 in0.5 mm 0.00 in0.0 mm 1.93 in49.0 mm
07:55 AM 58.3°F14.6°C 55.7°F13.2°C 91% 15.0 mph NE24.1 kmh NE 29.0 mph46.7 kmh 29.15 in987.1 mb 0.02 in0.5 mm 0.00 in0.0 mm 1.93 in49.0 mm
07:56 AM 58.3°F14.6°C 55.7°F13.2°C 91% 15.0 mph NE24.1 kmh NE 29.0 mph46.7 kmh 29.15 in987.1 mb 0.02 in0.5 mm 0.00 in0.0 mm 1.93 in49.0 mm
07:57 AM 58.3°F14.6°C 55.7°F13.2°C 91% 15.0 mph NE24.1 kmh NE 29.0 mph46.7 kmh 29.15 in987.1 mb 0.02 in0.5 mm 0.00 in0.0 mm 1.93 in49.0 mm
07:58 AM 58.3°F14.6°C 55.4°F13.0°C 90% 15.0 mph NE24.1 kmh NE 29.0 mph46.7 kmh 29.15 in987.1 mb 0.02 in0.5 mm 0.00 in0.0 mm 1.93 in49.0 mm
07:59 AM 58.3°F14.6°C 55.4°F13.0°C 90% 15.0 mph NE24.1 kmh NE 27.0 mph43.5 kmh 29.15 in987.1 mb 0.02 in0.5 mm 0.00 in0.0 mm 1.93 in49.0 mm
08:00 AM 58.3°F14.6°C 55.4°F13.0°C 90% 15.0 mph NE24.1 kmh NE 27.0 mph43.5 kmh 29.15 in987.1 mb 0.02 in0.5 mm 0.00 in0.0 mm 1.93 in49.0 mm
08:02 AM 58.5°F14.7°C 55.5°F13.1°C 90% 15.0 mph NE24.1 kmh NE 27.0 mph43.5 kmh 29.15 in987.1 mb 0.02 in0.5 mm 0.00 in0.0 mm 1.93 in49.0 mm
08:03 AM 58.5°F14.7°C 55.5°F13.1°C 90% 15.0 mph NE24.1 kmh NE 27.0 mph43.5 kmh 29.15 in987.1 mb 0.02 in0.5 mm 0.00 in0.0 mm 1.93 in49.0 mm
08:06 AM 58.5°F14.7°C 55.2°F12.9°C 89% 15.0 mph NE24.1 kmh NE 25.0 mph40.2 kmh 29.15 in987.1 mb 0.02 in0.5 mm 0.00 in0.0 mm 1.93 in49.0 mm
08:07 AM 58.5°F14.7°C 55.2°F12.9°C 89% 15.0 mph NE24.1 kmh NE 25.0 mph40.2 kmh 29.15 in987.1 mb 0.02 in0.5 mm 0.00 in0.0 mm 1.93 in49.0 mm
08:08 AM 58.5°F14.7°C 55.2°F12.9°C 89% 15.0 mph NE24.1 kmh NE 25.0 mph40.2 kmh 29.15 in987.1 mb 0.02 in0.5 mm 0.00 in0.0 mm 1.93 in49.0 mm
08:09 AM 58.3°F14.6°C 55.1°F12.8°C 89% 15.0 mph NE24.1 kmh NE 25.0 mph40.2 kmh 29.15 in987.1 mb 0.02 in0.5 mm 0.00 in0.0 mm 1.93 in49.0 mm
08:10 AM 58.3°F14.6°C 55.1°F12.8°C 89% 15.0 mph NE24.1 kmh NE 25.0 mph40.2 kmh 29.15 in987.1 mb 0.02 in0.5 mm 0.00 in0.0 mm 1.93 in49.0 mm
08:11 AM 58.3°F14.6°C 55.1°F12.8°C 89% 15.0 mph NE24.1 kmh NE 25.0 mph40.2 kmh 29.15 in987.1 mb 0.02 in0.5 mm 0.00 in0.0 mm 1.93 in49.0 mm
08:12 AM 58.3°F14.6°C 55.1°F12.8°C 89% 15.0 mph NE24.1 kmh NE 25.0 mph40.2 kmh 29.15 in987.1 mb 0.02 in0.5 mm 0.00 in0.0 mm 1.93 in49.0 mm
08:13 AM 58.3°F14.6°C 55.1°F12.8°C 89% 15.0 mph NE24.1 kmh NE 26.0 mph41.8 kmh 29.15 in987.1 mb 0.02 in0.5 mm 0.00 in0.0 mm 1.93 in49.0 mm
08:14 AM 58.3°F14.6°C 55.1°F12.8°C 89% 15.0 mph NE24.1 kmh NE 26.0 mph41.8 kmh 29.15 in987.1 mb 0.02 in0.5 mm 0.00 in0.0 mm 1.93 in49.0 mm
08:15 AM 58.3°F14.6°C 55.4°F13.0°C 90% 15.0 mph NE24.1 kmh NE 26.0 mph41.8 kmh 29.15 in987.1 mb 0.02 in0.5 mm 0.00 in0.0 mm 1.93 in49.0 mm
08:16 AM 58.3°F14.6°C 55.4°F13.0°C 90% 15.0 mph NE24.1 kmh NE 26.0 mph41.8 kmh 29.15 in987.1 mb 0.02 in0.5 mm 0.00 in0.0 mm 1.93 in49.0 mm
08:17 AM 58.3°F14.6°C 55.4°F13.0°C 90% 14.0 mph NE22.5 kmh NE 26.0 mph41.8 kmh 29.15 in987.1 mb 0.02 in0.5 mm 0.00 in0.0 mm 1.93 in49.0 mm
08:18 AM 58.3°F14.6°C 55.4°F13.0°C 90% 14.0 mph NE22.5 kmh NE 26.0 mph41.8 kmh 29.15 in987.1 mb 0.02 in0.5 mm 0.00 in0.0 mm 1.93 in49.0 mm
08:19 AM 58.3°F14.6°C 55.4°F13.0°C 90% 14.0 mph NE22.5 kmh NE 26.0 mph41.8 kmh 29.15 in987.1 mb 0.02 in0.5 mm 0.00 in0.0 mm 1.93 in49.0 mm
08:20 AM 58.3°F14.6°C 55.4°F13.0°C 90% 14.0 mph NE22.5 kmh NE 26.0 mph41.8 kmh 29.15 in987.1 mb 0.02 in0.5 mm 0.00 in0.0 mm 1.93 in49.0 mm
08:21 AM 58.3°F14.6°C 55.4°F13.0°C 90% 14.0 mph NE22.5 kmh NE 26.0 mph41.8 kmh 29.15 in987.1 mb 0.02 in0.5 mm 0.00 in0.0 mm 1.93 in49.0 mm
08:22 AM 58.3°F14.6°C 55.4°F13.0°C 90% 14.0 mph NE22.5 kmh NE 26.0 mph41.8 kmh 29.15 in987.1 mb 0.02 in0.5 mm 0.00 in0.0 mm 1.93 in49.0 mm
08:23 AM 58.3°F14.6°C 55.4°F13.0°C 90% 14.0 mph NE22.5 kmh NE 23.0 mph37.0 kmh 29.15 in987.1 mb 0.02 in0.5 mm 0.00 in0.0 mm 1.93 in49.0 mm
08:24 AM 58.3°F14.6°C 55.7°F13.2°C 91% 14.0 mph NE22.5 kmh NE 23.0 mph37.0 kmh 29.15 in987.1 mb 0.02 in0.5 mm 0.00 in0.0 mm 1.93 in49.0 mm
08:25 AM 58.3°F14.6°C 55.7°F13.2°C 91% 14.0 mph NE22.5 kmh NE 23.0 mph37.0 kmh 29.15 in987.1 mb 0.02 in0.5 mm 0.00 in0.0 mm 1.93 in49.0 mm
08:26 AM 58.3°F14.6°C 55.7°F13.2°C 91% 14.0 mph NE22.5 kmh NE 23.0 mph37.0 kmh 29.15 in987.1 mb 0.02 in0.5 mm 0.00 in0.0 mm 1.93 in49.0 mm
08:27 AM 58.3°F14.6°C 55.7°F13.2°C 91% 14.0 mph NE22.5 kmh NE 23.0 mph37.0 kmh 29.15 in987.1 mb 0.02 in0.5 mm 0.00 in0.0 mm 1.93 in49.0 mm
08:28 AM 58.3°F14.6°C 55.7°F13.2°C 91% 14.0 mph NE22.5 kmh NE 23.0 mph37.0 kmh 29.15 in987.1 mb 0.02 in0.5 mm 0.00 in0.0 mm 1.93 in49.0 mm
08:29 AM 58.3°F14.6°C 55.7°F13.2°C 91% 14.0 mph NE22.5 kmh NE 23.0 mph37.0 kmh 29.15 in987.1 mb 0.02 in0.5 mm 0.00 in0.0 mm 1.93 in49.0 mm
08:30 AM 58.3°F14.6°C 55.7°F13.2°C 91% 14.0 mph NE22.5 kmh NE 24.0 mph38.6 kmh 29.15 in987.1 mb 0.02 in0.5 mm 0.00 in0.0 mm 1.93 in49.0 mm
08:31 AM 58.3°F14.6°C 55.7°F13.2°C 91% 14.0 mph NE22.5 kmh NE 24.0 mph38.6 kmh 29.15 in987.1 mb 0.00 in0.0 mm 0.00 in0.0 mm 1.93 in49.0 mm
08:32 AM 58.3°F14.6°C 55.7°F13.2°C 91% 14.0 mph NE22.5 kmh NE 24.0 mph38.6 kmh 29.15 in987.1 mb 0.00 in0.0 mm 0.00 in0.0 mm 1.93 in49.0 mm
08:33 AM 58.3°F14.6°C 55.7°F13.2°C 91% 14.0 mph NE22.5 kmh NE 24.0 mph38.6 kmh 29.14 in986.8 mb 0.00 in0.0 mm 0.00 in0.0 mm 1.93 in49.0 mm
08:34 AM 58.3°F14.6°C 55.7°F13.2°C 91% 14.0 mph NE22.5 kmh NE 24.0 mph38.6 kmh 29.14 in986.8 mb 0.00 in0.0 mm 0.00 in0.0 mm 1.93 in49.0 mm
08:35 AM 58.3°F14.6°C 55.7°F13.2°C 91% 14.0 mph NE22.5 kmh NE 24.0 mph38.6 kmh 29.14 in986.8 mb 0.00 in0.0 mm 0.00 in0.0 mm 1.93 in49.0 mm
08:36 AM 58.3°F14.6°C 55.7°F13.2°C 91% 14.0 mph NE22.5 kmh NE 24.0 mph38.6 kmh 29.14 in986.8 mb 0.00 in0.0 mm 0.00 in0.0 mm 1.93 in49.0 mm
08:37 AM 58.3°F14.6°C 55.7°F13.2°C 91% 14.0 mph NE22.5 kmh NE 24.0 mph38.6 kmh 29.14 in986.8 mb 0.00 in0.0 mm 0.00 in0.0 mm 1.93 in49.0 mm
08:38 AM 58.3°F14.6°C 55.7°F13.2°C 91% 14.0 mph NE22.5 kmh NE 24.0 mph38.6 kmh 29.15 in987.1 mb 0.00 in0.0 mm 0.00 in0.0 mm 1.93 in49.0 mm
08:39 AM 58.3°F14.6°C 55.7°F13.2°C 91% 14.0 mph NE22.5 kmh NE 24.0 mph38.6 kmh 29.15 in987.1 mb 0.00 in0.0 mm 0.00 in0.0 mm 1.93 in49.0 mm
08:40 AM 58.3°F14.6°C 55.7°F13.2°C 91% 14.0 mph NE22.5 kmh NE 24.0 mph38.6 kmh 29.15 in987.1 mb 0.00 in0.0 mm 0.00 in0.0 mm 1.93 in49.0 mm
08:41 AM 58.3°F14.6°C 55.7°F13.2°C 91% 14.0 mph NE22.5 kmh NE 24.0 mph38.6 kmh 29.15 in987.1 mb 0.00 in0.0 mm 0.00 in0.0 mm 1.93 in49.0 mm
08:42 AM 58.3°F14.6°C 55.7°F13.2°C 91% 14.0 mph NE22.5 kmh NE 25.0 mph40.2 kmh 29.15 in987.1 mb 0.00 in0.0 mm 0.00 in0.0 mm 1.93 in49.0 mm
08:43 AM 58.3°F14.6°C 55.7°F13.2°C 91% 15.0 mph NE24.1 kmh NE 25.0 mph40.2 kmh 29.15 in987.1 mb 0.00 in0.0 mm 0.00 in0.0 mm 1.93 in49.0 mm
08:44 AM 58.3°F14.6°C 55.7°F13.2°C 91% 15.0 mph NE24.1 kmh NE 25.0 mph40.2 kmh 29.15 in987.1 mb 0.00 in0.0 mm 0.00 in0.0 mm 1.93 in49.0 mm
08:45 AM 58.3°F14.6°C 55.7°F13.2°C 91% 15.0 mph NE24.1 kmh NE 25.0 mph40.2 kmh 29.15 in987.1 mb 0.00 in0.0 mm 0.00 in0.0 mm 1.93 in49.0 mm
08:46 AM 58.3°F14.6°C 55.7°F13.2°C 91% 15.0 mph NE24.1 kmh NE 25.0 mph40.2 kmh 29.15 in987.1 mb 0.00 in0.0 mm 0.00 in0.0 mm 1.93 in49.0 mm
08:47 AM 58.3°F14.6°C 55.7°F13.2°C 91% 15.0 mph NE24.1 kmh NE 25.0 mph40.2 kmh 29.15 in987.1 mb 0.00 in0.0 mm 0.00 in0.0 mm 1.93 in49.0 mm
08:48 AM 58.3°F14.6°C 55.7°F13.2°C 91% 15.0 mph NE24.1 kmh NE 25.0 mph40.2 kmh 29.14 in986.8 mb 0.00 in0.0 mm 0.00 in0.0 mm 1.93 in49.0 mm
08:49 AM 58.3°F14.6°C 55.7°F13.2°C 91% 15.0 mph NE24.1 kmh NE 26.0 mph41.8 kmh 29.14 in986.8 mb 0.00 in0.0 mm 0.00 in0.0 mm 1.93 in49.0 mm
08:50 AM 58.3°F14.6°C 55.7°F13.2°C 91% 14.0 mph NE22.5 kmh NE 26.0 mph41.8 kmh 29.14 in986.8 mb 0.00 in0.0 mm 0.00 in0.0 mm 1.93 in49.0 mm
08:51 AM 58.3°F14.6°C 55.7°F13.2°C 91% 14.0 mph NE22.5 kmh NE 26.0 mph41.8 kmh 29.14 in986.8 mb 0.00 in0.0 mm 0.00 in0.0 mm 1.93 in49.0 mm
08:52 AM 58.3°F14.6°C 55.7°F13.2°C 91% 14.0 mph NE22.5 kmh NE 26.0 mph41.8 kmh 29.14 in986.8 mb 0.00 in0.0 mm 0.00 in0.0 mm 1.93 in49.0 mm
08:53 AM 58.3°F14.6°C 55.7°F13.2°C 91% 14.0 mph NE22.5 kmh NE 26.0 mph41.8 kmh 29.14 in986.8 mb 0.00 in0.0 mm 0.00 in0.0 mm 1.93 in49.0 mm
08:54 AM 58.3°F14.6°C 55.7°F13.2°C 91% 14.0 mph NE22.5 kmh NE 26.0 mph41.8 kmh 29.15 in987.1 mb 0.00 in0.0 mm 0.00 in0.0 mm 1.93 in49.0 mm
08:55 AM 58.3°F14.6°C 55.7°F13.2°C 91% 14.0 mph NE22.5 kmh NE 26.0 mph41.8 kmh 29.14 in986.8 mb 0.00 in0.0 mm 0.00 in0.0 mm 1.93 in49.0 mm
08:56 AM 58.3°F14.6°C 55.7°F13.2°C 91% 14.0 mph NE22.5 kmh NE 26.0 mph41.8 kmh 29.14 in986.8 mb 0.00 in0.0 mm 0.00 in0.0 mm 1.93 in49.0 mm
08:57 AM 58.5°F14.7°C 55.5°F13.1°C 90% 14.0 mph NE22.5 kmh NE 26.0 mph41.8 kmh 29.14 in986.8 mb 0.00 in0.0 mm 0.00 in0.0 mm 1.93 in49.0 mm
08:58 AM 58.6°F14.8°C 55.7°F13.2°C 90% 14.0 mph NE22.5 kmh NE 26.0 mph41.8 kmh 29.14 in986.8 mb 0.00 in0.0 mm 0.00 in0.0 mm 1.93 in49.0 mm
08:59 AM 58.6°F14.8°C 55.4°F13.0°C 89% 14.0 mph NE22.5 kmh NE 26.0 mph41.8 kmh 29.14 in986.8 mb 0.00 in0.0 mm 0.00 in0.0 mm 1.93 in49.0 mm
09:00 AM 58.8°F14.9°C 55.6°F13.1°C 89% 14.0 mph NE22.5 kmh NE 29.0 mph46.7 kmh 29.14 in986.8 mb 0.00 in0.0 mm 0.00 in0.0 mm 1.93 in49.0 mm
09:01 AM 58.8°F14.9°C 55.6°F13.1°C 89% 14.0 mph NE22.5 kmh NE 29.0 mph46.7 kmh 29.14 in986.8 mb 0.00 in0.0 mm 0.00 in0.0 mm 1.93 in49.0 mm
09:02 AM 58.8°F14.9°C 55.6°F13.1°C 89% 14.0 mph NE22.5 kmh NE 29.0 mph46.7 kmh 29.14 in986.8 mb 0.00 in0.0 mm 0.00 in0.0 mm 1.93 in49.0 mm
09:03 AM 58.8°F14.9°C 55.6°F13.1°C 89% 14.0 mph NE22.5 kmh NE 29.0 mph46.7 kmh 29.14 in986.8 mb 0.00 in0.0 mm 0.00 in0.0 mm 1.93 in49.0 mm
09:04 AM 58.8°F14.9°C 55.6°F13.1°C 89% 14.0 mph NE22.5 kmh NE 29.0 mph46.7 kmh 29.14 in986.8 mb 0.00 in0.0 mm 0.00 in0.0 mm 1.93 in49.0 mm
09:05 AM 58.8°F14.9°C 55.6°F13.1°C 89% 14.0 mph NE22.5 kmh NE 29.0 mph46.7 kmh 29.14 in986.8 mb 0.00 in0.0 mm 0.00 in0.0 mm 1.93 in49.0 mm
09:06 AM 58.6°F14.8°C 55.7°F13.2°C 90% 14.0 mph NE22.5 kmh NE 29.0 mph46.7 kmh 29.14 in986.8 mb 0.00 in0.0 mm 0.00 in0.0 mm 1.93 in49.0 mm
09:07 AM 58.6°F14.8°C 55.7°F13.2°C 90% 14.0 mph NE22.5 kmh NE 29.0 mph46.7 kmh 29.14 in986.8 mb 0.00 in0.0 mm 0.00 in0.0 mm 1.93 in49.0 mm
09:08 AM 58.6°F14.8°C 55.7°F13.2°C 90% 14.0 mph NE22.5 kmh NE 29.0 mph46.7 kmh 29.14 in986.8 mb 0.00 in0.0 mm 0.00 in0.0 mm 1.93 in49.0 mm
09:09 AM 58.5°F14.7°C 55.5°F13.1°C 90% 14.0 mph NE22.5 kmh NE 29.0 mph46.7 kmh 29.14 in986.8 mb 0.00 in0.0 mm 0.00 in0.0 mm 1.93 in49.0 mm
09:10 AM 58.5°F14.7°C 55.5°F13.1°C 90% 14.0 mph NE22.5 kmh NE 25.0 mph40.2 kmh 29.14 in986.8 mb 0.00 in0.0 mm 0.00 in0.0 mm 1.93 in49.0 mm
09:11 AM 58.5°F14.7°C 55.8°F13.2°C 91% 14.0 mph NE22.5 kmh NE 25.0 mph40.2 kmh 29.14 in986.8 mb 0.00 in0.0 mm 0.00 in0.0 mm 1.93 in49.0 mm
09:12 AM 58.5°F14.7°C 55.8°F13.2°C 91% 14.0 mph NE22.5 kmh NE 25.0 mph40.2 kmh 29.14 in986.8 mb 0.00 in0.0 mm 0.00 in0.0 mm 1.93 in49.0 mm
09:13 AM 58.5°F14.7°C 55.8°F13.2°C 91% 14.0 mph NE22.5 kmh NE 25.0 mph40.2 kmh 29.14 in986.8 mb 0.00 in0.0 mm 0.00 in0.0 mm 1.93 in49.0 mm
09:14 AM 58.5°F14.7°C 55.8°F13.2°C 91% 13.0 mph NE20.9 kmh NE 25.0 mph40.2 kmh 29.14 in986.8 mb 0.00 in0.0 mm 0.00 in0.0 mm 1.93 in49.0 mm
09:15 AM 58.5°F14.7°C 55.8°F13.2°C 91% 13.0 mph NE20.9 kmh NE 25.0 mph40.2 kmh 29.14 in986.8 mb 0.00 in0.0 mm 0.00 in0.0 mm 1.93 in49.0 mm
09:16 AM 58.5°F14.7°C 55.8°F13.2°C 91% 13.0 mph NE20.9 kmh NE 25.0 mph40.2 kmh 29.14 in986.8 mb 0.00 in0.0 mm 0.00 in0.0 mm 1.93 in49.0 mm
09:17 AM 58.5°F14.7°C 55.8°F13.2°C 91% 13.0 mph NE20.9 kmh NE 23.0 mph37.0 kmh 29.14 in986.8 mb 0.00 in0.0 mm 0.00 in0.0 mm 1.93 in49.0 mm
09:18 AM 58.5°F14.7°C 55.8°F13.2°C 91% 13.0 mph NE20.9 kmh NE 23.0 mph37.0 kmh 29.14 in986.8 mb 0.00 in0.0 mm 0.00 in0.0 mm 1.93 in49.0 mm
09:19 AM 58.5°F14.7°C 55.8°F13.2°C 91% 13.0 mph NE20.9 kmh NE 23.0 mph37.0 kmh 29.14 in986.8 mb 0.00 in0.0 mm 0.00 in0.0 mm 1.93 in49.0 mm
09:20 AM 58.5°F14.7°C 55.8°F13.2°C 91% 13.0 mph NE20.9 kmh NE 23.0 mph37.0 kmh 29.14 in986.8 mb 0.00 in0.0 mm 0.00 in0.0 mm 1.93 in49.0 mm
09:21 AM 58.5°F14.7°C 55.8°F13.2°C 91% 13.0 mph NE20.9 kmh NE 23.0 mph37.0 kmh 29.14 in986.8 mb 0.00 in0.0 mm 0.00 in0.0 mm 1.93 in49.0 mm
09:22 AM 58.5°F14.7°C 55.8°F13.2°C 91% 13.0 mph NE20.9 kmh NE 22.0 mph35.4 kmh 29.14 in986.8 mb 0.00 in0.0 mm 0.00 in0.0 mm 1.93 in49.0 mm
09:23 AM 58.5°F14.7°C 55.8°F13.2°C 91% 13.0 mph NE20.9 kmh NE 22.0 mph35.4 kmh 29.14 in986.8 mb 0.00 in0.0 mm 0.00 in0.0 mm 1.93 in49.0 mm
09:24 AM 58.5°F14.7°C 55.8°F13.2°C 91% 13.0 mph NE20.9 kmh NE 22.0 mph35.4 kmh 29.14 in986.8 mb 0.00 in0.0 mm 0.00 in0.0 mm 1.93 in49.0 mm
09:25 AM 58.6°F14.8°C 56.0°F13.3°C 91% 13.0 mph NE20.9 kmh NE 22.0 mph35.4 kmh 29.14 in986.8 mb 0.00 in0.0 mm 0.00 in0.0 mm 1.93 in49.0 mm
09:26 AM 58.6°F14.8°C 56.0°F13.3°C 91% 13.0 mph NE20.9 kmh NE 25.0 mph40.2 kmh 29.14 in986.8 mb 0.00 in0.0 mm 0.00 in0.0 mm 1.93 in49.0 mm
09:27 AM 58.6°F14.8°C 56.0°F13.3°C 91% 13.0 mph NE20.9 kmh NE 25.0 mph40.2 kmh 29.14 in986.8 mb 0.00 in0.0 mm 0.00 in0.0 mm 1.93 in49.0 mm
09:28 AM 58.6°F14.8°C 56.0°F13.3°C 91% 12.0 mph NE19.3 kmh NE 25.0 mph40.2 kmh 29.14 in986.8 mb 0.01 in0.3 mm 0.60 in15.2 mm 1.94 in49.3 mm
09:29 AM 58.6°F14.8°C 56.0°F13.3°C 91% 12.0 mph NE19.3 kmh NE 25.0 mph40.2 kmh 29.14 in986.8 mb 0.01 in0.3 mm 0.00 in0.0 mm 1.94 in49.3 mm
09:30 AM 58.6°F14.8°C 55.7°F13.2°C 90% 12.0 mph NE19.3 kmh NE 25.0 mph40.2 kmh 29.14 in986.8 mb 0.02 in0.5 mm 0.60 in15.2 mm 1.94 in49.3 mm
09:31 AM 58.6°F14.8°C 55.7°F13.2°C 90% 12.0 mph NE19.3 kmh NE 25.0 mph40.2 kmh 29.14 in986.8 mb 0.02 in0.5 mm 0.00 in0.0 mm 1.94 in49.3 mm
09:32 AM 58.6°F14.8°C 56.0°F13.3°C 91% 12.0 mph NE19.3 kmh NE 25.0 mph40.2 kmh 29.14 in986.8 mb 0.02 in0.5 mm 0.00 in0.0 mm 1.94 in49.3 mm
09:33 AM 58.6°F14.8°C 56.0°F13.3°C 91% 12.0 mph NE19.3 kmh NE 25.0 mph40.2 kmh 29.14 in986.8 mb 0.02 in0.5 mm 0.00 in0.0 mm 1.94 in49.3 mm
09:34 AM 58.6°F14.8°C 56.0°F13.3°C 91% 12.0 mph NE19.3 kmh NE 25.0 mph40.2 kmh 29.14 in986.8 mb 0.02 in0.5 mm 0.00 in0.0 mm 1.94 in49.3 mm
09:35 AM 58.6°F14.8°C 55.7°F13.2°C 90% 12.0 mph NE19.3 kmh NE 25.0 mph40.2 kmh 29.14 in986.8 mb 0.02 in0.5 mm 0.00 in0.0 mm 1.94 in49.3 mm
09:36 AM 58.6°F14.8°C 55.7°F13.2°C 90% 12.0 mph NE19.3 kmh NE 24.0 mph38.6 kmh 29.14 in986.8 mb 0.02 in0.5 mm 0.00 in0.0 mm 1.94 in49.3 mm
09:37 AM 58.6°F14.8°C 55.7°F13.2°C 90% 12.0 mph NE19.3 kmh NE 21.0 mph33.8 kmh 29.14 in986.8 mb 0.02 in0.5 mm 0.00 in0.0 mm 1.94 in49.3 mm
09:38 AM 58.6°F14.8°C 55.7°F13.2°C 90% 12.0 mph NE19.3 kmh NE 21.0 mph33.8 kmh 29.14 in986.8 mb 0.02 in0.5 mm 0.00 in0.0 mm 1.94 in49.3 mm
09:39 AM 58.6°F14.8°C 55.7°F13.2°C 90% 12.0 mph NE19.3 kmh NE 24.0 mph38.6 kmh 29.13 in986.5 mb 0.02 in0.5 mm 0.00 in0.0 mm 1.94 in49.3 mm
09:40 AM 58.6°F14.8°C 55.7°F13.2°C 90% 12.0 mph NE19.3 kmh NE 24.0 mph38.6 kmh 29.13 in986.5 mb 0.02 in0.5 mm 0.00 in0.0 mm 1.94 in49.3 mm
09:41 AM 58.8°F14.9°C 55.9°F13.3°C 90% 12.0 mph NE19.3 kmh NE 24.0 mph38.6 kmh 29.14 in986.8 mb 0.02 in0.5 mm 0.00 in0.0 mm 1.94 in49.3 mm
09:42 AM 58.8°F14.9°C 55.9°F13.3°C 90% 12.0 mph NE19.3 kmh NE 24.0 mph38.6 kmh 29.14 in986.8 mb 0.02 in0.5 mm 0.00 in0.0 mm 1.94 in49.3 mm
09:43 AM 58.8°F14.9°C 55.9°F13.3°C 90% 12.0 mph NE19.3 kmh NE 24.0 mph38.6 kmh 29.14 in986.8 mb 0.02 in0.5 mm 0.00 in0.0 mm 1.94 in49.3 mm
09:44 AM 58.8°F14.9°C 55.9°F13.3°C 90% 12.0 mph NE19.3 kmh NE 24.0 mph38.6 kmh 29.14 in986.8 mb 0.02 in0.5 mm 0.00 in0.0 mm 1.94 in49.3 mm
09:45 AM 58.8°F14.9°C 55.9°F13.3°C 90% 12.0 mph NE19.3 kmh NE 24.0 mph38.6 kmh 29.13 in986.5 mb 0.02 in0.5 mm 0.00 in0.0 mm 1.94 in49.3 mm
09:46 AM 58.8°F14.9°C 55.9°F13.3°C 90% 12.0 mph NE19.3 kmh NE 24.0 mph38.6 kmh 29.13 in986.5 mb 0.02 in0.5 mm 0.00 in0.0 mm 1.94 in49.3 mm
09:47 AM 58.8°F14.9°C 55.9°F13.3°C 90% 12.0 mph NE19.3 kmh NE 24.0 mph38.6 kmh 29.13 in986.5 mb 0.02 in0.5 mm 0.00 in0.0 mm 1.94 in49.3 mm
09:48 AM 58.8°F14.9°C 55.9°F13.3°C 90% 12.0 mph NE19.3 kmh NE 24.0 mph38.6 kmh 29.13 in986.5 mb 0.02 in0.5 mm 0.00 in0.0 mm 1.94 in49.3 mm
09:49 AM 58.8°F14.9°C 55.9°F13.3°C 90% 12.0 mph NE19.3 kmh NE 24.0 mph38.6 kmh 29.13 in986.5 mb 0.02 in0.5 mm 0.00 in0.0 mm 1.94 in49.3 mm
09:50 AM 58.8°F14.9°C 55.9°F13.3°C 90% 12.0 mph NE19.3 kmh NE 24.0 mph38.6 kmh 29.13 in986.5 mb 0.02 in0.5 mm 0.00 in0.0 mm 1.94 in49.3 mm
09:51 AM 58.8°F14.9°C 55.9°F13.3°C 90% 12.0 mph NE19.3 kmh NE 24.0 mph38.6 kmh 29.13 in986.5 mb 0.02 in0.5 mm 0.00 in0.0 mm 1.94 in49.3 mm
09:52 AM 58.8°F14.9°C 55.9°F13.3°C 90% 12.0 mph NE19.3 kmh NE 24.0 mph38.6 kmh 29.13 in986.5 mb 0.02 in0.5 mm 0.00 in0.0 mm 1.94 in49.3 mm
09:53 AM 58.8°F14.9°C 55.9°F13.3°C 90% 12.0 mph NE19.3 kmh NE 24.0 mph38.6 kmh 29.13 in986.5 mb 0.02 in0.5 mm 0.00 in0.0 mm 1.94 in49.3 mm
09:54 AM 59.0°F15.0°C 56.1°F13.4°C 90% 12.0 mph NE19.3 kmh NE 24.0 mph38.6 kmh 29.13 in986.5 mb 0.02 in0.5 mm 0.00 in0.0 mm 1.94 in49.3 mm
09:55 AM 59.0°F15.0°C 56.1°F13.4°C 90% 13.0 mph NE20.9 kmh NE 24.0 mph38.6 kmh 29.13 in986.5 mb 0.02 in0.5 mm 0.00 in0.0 mm 1.94 in49.3 mm
09:56 AM 59.0°F15.0°C 56.1°F13.4°C 90% 13.0 mph NE20.9 kmh NE 24.0 mph38.6 kmh 29.13 in986.5 mb 0.02 in0.5 mm 0.00 in0.0 mm 1.94 in49.3 mm
09:57 AM 59.0°F15.0°C 56.1°F13.4°C 90% 13.0 mph NE20.9 kmh NE 24.0 mph38.6 kmh 29.13 in986.5 mb 0.02 in0.5 mm 0.00 in0.0 mm 1.94 in49.3 mm
09:58 AM 59.2°F15.1°C 56.2°F13.4°C 90% 13.0 mph NE20.9 kmh NE 24.0 mph38.6 kmh 29.14 in986.8 mb 0.02 in0.5 mm 0.00 in0.0 mm 1.94 in49.3 mm
09:59 AM 59.2°F15.1°C 56.2°F13.4°C 90% 13.0 mph NE20.9 kmh NE 24.0 mph38.6 kmh 29.14 in986.8 mb 0.02 in0.5 mm 0.00 in0.0 mm 1.94 in49.3 mm
10:00 AM 59.2°F15.1°C 56.2°F13.4°C 90% 13.0 mph NE20.9 kmh NE 23.0 mph37.0 kmh 29.13 in986.5 mb 0.02 in0.5 mm 0.00 in0.0 mm 1.94 in49.3 mm
10:01 AM 59.4°F15.2°C 56.4°F13.6°C 90% 13.0 mph NE20.9 kmh NE 23.0 mph37.0 kmh 29.13 in986.5 mb 0.02 in0.5 mm 0.00 in0.0 mm 1.94 in49.3 mm
10:02 AM 59.4°F15.2°C 56.4°F13.6°C 90% 13.0 mph NE20.9 kmh NE 23.0 mph37.0 kmh 29.13 in986.5 mb 0.02 in0.5 mm 0.00 in0.0 mm 1.94 in49.3 mm
10:03 AM 59.4°F15.2°C 56.4°F13.6°C 90% 13.0 mph NE20.9 kmh NE 23.0 mph37.0 kmh 29.13 in986.5 mb 0.02 in0.5 mm 0.00 in0.0 mm 1.94 in49.3 mm
10:04 AM 59.5°F15.3°C 56.6°F13.7°C 90% 13.0 mph NE20.9 kmh NE 23.0 mph37.0 kmh 29.13 in986.5 mb 0.02 in0.5 mm 0.00 in0.0 mm 1.94 in49.3 mm
10:05 AM 59.5°F15.3°C 56.6°F13.7°C 90% 13.0 mph NE20.9 kmh NE 23.0 mph37.0 kmh 29.14 in986.8 mb 0.02 in0.5 mm 0.00 in0.0 mm 1.95 in49.5 mm
10:06 AM 59.5°F15.3°C 56.6°F13.7°C 90% 13.0 mph NE20.9 kmh NE 24.0 mph38.6 kmh 29.13 in986.5 mb 0.03 in0.8 mm 0.60 in15.2 mm 1.96 in49.8 mm
10:07 AM 59.5°F15.3°C 56.6°F13.7°C 90% 13.0 mph NE20.9 kmh NE 24.0 mph38.6 kmh 29.13 in986.5 mb 0.03 in0.8 mm 0.00 in0.0 mm 1.96 in49.8 mm
10:08 AM 59.5°F15.3°C 56.9°F13.8°C 91% 13.0 mph NE20.9 kmh NE 24.0 mph38.6 kmh 29.13 in986.5 mb 0.03 in0.8 mm 0.00 in0.0 mm 1.96 in49.8 mm
10:09 AM 59.5°F15.3°C 56.9°F13.8°C 91% 13.0 mph NE20.9 kmh NE 24.0 mph38.6 kmh 29.13 in986.5 mb 0.03 in0.8 mm 0.00 in0.0 mm 1.96 in49.8 mm
10:10 AM 59.5°F15.3°C 56.9°F13.8°C 91% 13.0 mph NE20.9 kmh NE 24.0 mph38.6 kmh 29.13 in986.5 mb 0.03 in0.8 mm 0.00 in0.0 mm 1.96 in49.8 mm
10:11 AM 59.7°F15.4°C 57.1°F13.9°C 91% 13.0 mph NE20.9 kmh NE 24.0 mph38.6 kmh 29.13 in986.5 mb 0.03 in0.8 mm 0.00 in0.0 mm 1.96 in49.8 mm
10:12 AM 59.7°F15.4°C 57.1°F13.9°C 91% 13.0 mph NE20.9 kmh NE 24.0 mph38.6 kmh 29.13 in986.5 mb 0.03 in0.8 mm 0.00 in0.0 mm 1.96 in49.8 mm
10:13 AM 59.7°F15.4°C 57.1°F13.9°C 91% 13.0 mph NE20.9 kmh NE 24.0 mph38.6 kmh 29.12 in986.1 mb 0.03 in0.8 mm 0.00 in0.0 mm 1.96 in49.8 mm
10:14 AM 59.7°F15.4°C 57.1°F13.9°C 91% 12.0 mph NE19.3 kmh NE 24.0 mph38.6 kmh 29.12 in986.1 mb 0.04 in1.0 mm 0.60 in15.2 mm 1.97 in50.0 mm
10:15 AM 59.9°F15.5°C 57.3°F14.1°C 91% 12.0 mph NE19.3 kmh NE 24.0 mph38.6 kmh 29.12 in986.1 mb 0.04 in1.0 mm 0.00 in0.0 mm 1.97 in50.0 mm
10:16 AM 59.9°F15.5°C 57.0°F13.9°C 90% 12.0 mph NE19.3 kmh NE 20.0 mph32.2 kmh 29.12 in986.1 mb 0.04 in1.0 mm 0.00 in0.0 mm 1.97 in50.0 mm
10:17 AM 60.1°F15.6°C 57.1°F13.9°C 90% 11.0 mph NE17.7 kmh NE 20.0 mph32.2 kmh 29.12 in986.1 mb 0.04 in1.0 mm 0.00 in0.0 mm 1.97 in50.0 mm
10:18 AM 60.1°F15.6°C 57.4°F14.1°C 91% 11.0 mph NE17.7 kmh NE 20.0 mph32.2 kmh 29.12 in986.1 mb 0.05 in1.3 mm 0.60 in15.2 mm 1.98 in50.3 mm
10:19 AM 60.1°F15.6°C 57.4°F14.1°C 91% 11.0 mph NE17.7 kmh NE 20.0 mph32.2 kmh 29.12 in986.1 mb 0.05 in1.3 mm 0.00 in0.0 mm 1.98 in50.3 mm
10:20 AM 59.9°F15.5°C 57.3°F14.1°C 91% 10.0 mph NE16.1 kmh NE 20.0 mph32.2 kmh 29.12 in986.1 mb 0.05 in1.3 mm 0.00 in0.0 mm 1.98 in50.3 mm
10:21 AM 59.7°F15.4°C 56.8°F13.8°C 90% 10.0 mph NE16.1 kmh NE 21.0 mph33.8 kmh 29.12 in986.1 mb 0.05 in1.3 mm 0.00 in0.0 mm 1.98 in50.3 mm
10:22 AM 59.7°F15.4°C 57.1°F13.9°C 91% 10.0 mph NE16.1 kmh NE 27.0 mph43.5 kmh 29.13 in986.5 mb 0.05 in1.3 mm 0.00 in0.0 mm 1.98 in50.3 mm
10:23 AM 59.7°F15.4°C 57.1°F13.9°C 91% 10.0 mph NE16.1 kmh NE 27.0 mph43.5 kmh 29.13 in986.5 mb 0.05 in1.3 mm 0.00 in0.0 mm 1.98 in50.3 mm
10:24 AM 59.7°F15.4°C 56.8°F13.8°C 90% 10.0 mph NE16.1 kmh NE 27.0 mph43.5 kmh 29.13 in986.5 mb 0.05 in1.3 mm 0.00 in0.0 mm 1.98 in50.3 mm
10:25 AM 59.9°F15.5°C 56.6°F13.7°C 89% 10.0 mph NE16.1 kmh NE 27.0 mph43.5 kmh 29.13 in986.5 mb 0.05 in1.3 mm 0.00 in0.0 mm 1.98 in50.3 mm
10:26 AM 60.1°F15.6°C 56.8°F13.8°C 89% 11.0 mph NE17.7 kmh NE 27.0 mph43.5 kmh 29.12 in986.1 mb 0.05 in1.3 mm 0.00 in0.0 mm 1.98 in50.3 mm
10:27 AM 60.1°F15.6°C 56.8°F13.8°C 89% 11.0 mph NE17.7 kmh NE 27.0 mph43.5 kmh 29.13 in986.5 mb 0.04 in1.0 mm 0.00 in0.0 mm 1.98 in50.3 mm
10:28 AM 60.1°F15.6°C 56.8°F13.8°C 89% 11.0 mph NE17.7 kmh NE 27.0 mph43.5 kmh 29.13 in986.5 mb 0.04 in1.0 mm 0.00 in0.0 mm 1.98 in50.3 mm
10:29 AM 60.4°F15.8°C 57.2°F14.0°C 89% 12.0 mph NE19.3 kmh NE 27.0 mph43.5 kmh 29.13 in986.5 mb 0.04 in1.0 mm 0.00 in0.0 mm 1.98 in50.3 mm
10:30 AM 60.6°F15.9°C 57.0°F13.9°C 88% 13.0 mph NE20.9 kmh NE 27.0 mph43.5 kmh 29.13 in986.5 mb 0.03 in0.8 mm 0.00 in0.0 mm 1.98 in50.3 mm
10:31 AM 60.6°F15.9°C 57.0°F13.9°C 88% 13.0 mph NE20.9 kmh NE 27.0 mph43.5 kmh 29.13 in986.5 mb 0.03 in0.8 mm 0.00 in0.0 mm 1.98 in50.3 mm
10:32 AM 60.8°F16.0°C 56.9°F13.8°C 87% 14.0 mph NE22.5 kmh NE 27.0 mph43.5 kmh 29.13 in986.5 mb 0.03 in0.8 mm 0.00 in0.0 mm 1.98 in50.3 mm
10:33 AM 61.0°F16.1°C 57.1°F13.9°C 87% 15.0 mph NE24.1 kmh NE 30.0 mph48.3 kmh 29.13 in986.5 mb 0.03 in0.8 mm 0.00 in0.0 mm 1.98 in50.3 mm
10:34 AM 61.0°F16.1°C 56.8°F13.8°C 86% 15.0 mph NE24.1 kmh NE 30.0 mph48.3 kmh 29.13 in986.5 mb 0.03 in0.8 mm 0.00 in0.0 mm 1.98 in50.3 mm
10:35 AM 61.2°F16.2°C 56.9°F13.8°C 86% 16.0 mph NE25.7 kmh NE 30.0 mph48.3 kmh 29.13 in986.5 mb 0.03 in0.8 mm 0.00 in0.0 mm 1.98 in50.3 mm
10:36 AM 61.2°F16.2°C 56.6°F13.7°C 85% 16.0 mph NE25.7 kmh NE 30.0 mph48.3 kmh 29.13 in986.5 mb 0.03 in0.8 mm 0.00 in0.0 mm 1.98 in50.3 mm
10:37 AM 61.2°F16.2°C 56.6°F13.7°C 85% 17.0 mph NE27.4 kmh NE 35.0 mph56.3 kmh 29.13 in986.5 mb 0.03 in0.8 mm 0.00 in0.0 mm 1.98 in50.3 mm
10:38 AM 61.3°F16.3°C 56.8°F13.8°C 85% 17.0 mph NE27.4 kmh NE 35.0 mph56.3 kmh 29.13 in986.5 mb 0.03 in0.8 mm 0.00 in0.0 mm 1.98 in50.3 mm
10:39 AM 61.3°F16.3°C 56.5°F13.6°C 84% 18.0 mph NE29.0 kmh NE 35.0 mph56.3 kmh 29.13 in986.5 mb 0.03 in0.8 mm 0.00 in0.0 mm 1.98 in50.3 mm
10:40 AM 61.5°F16.4°C 57.0°F13.9°C 85% 18.0 mph NE29.0 kmh NE 35.0 mph56.3 kmh 29.13 in986.5 mb 0.03 in0.8 mm 0.00 in0.0 mm 1.98 in50.3 mm
10:41 AM 61.5°F16.4°C 56.6°F13.7°C 84% 18.0 mph NE29.0 kmh NE 35.0 mph56.3 kmh 29.13 in986.5 mb 0.03 in0.8 mm 0.00 in0.0 mm 1.98 in50.3 mm
10:42 AM 61.7°F16.5°C 56.8°F13.8°C 84% 18.0 mph NE29.0 kmh NE 35.0 mph56.3 kmh 29.13 in986.5 mb 0.03 in0.8 mm 0.00 in0.0 mm 1.98 in50.3 mm
10:43 AM 61.7°F16.5°C 56.8°F13.8°C 84% 19.0 mph NE30.6 kmh NE 35.0 mph56.3 kmh 29.13 in986.5 mb 0.03 in0.8 mm 0.00 in0.0 mm 1.98 in50.3 mm
10:44 AM 61.7°F16.5°C 57.1°F13.9°C 85% 19.0 mph NE30.6 kmh NE 35.0 mph56.3 kmh 29.14 in986.8 mb 0.03 in0.8 mm 0.00 in0.0 mm 1.98 in50.3 mm
10:45 AM 61.7°F16.5°C 56.5°F13.6°C 83% 19.0 mph NE30.6 kmh NE 35.0 mph56.3 kmh 29.13 in986.5 mb 0.03 in0.8 mm 0.00 in0.0 mm 1.98 in50.3 mm
10:46 AM 61.7°F16.5°C 56.8°F13.8°C 84% 19.0 mph NE30.6 kmh NE 35.0 mph56.3 kmh 29.14 in986.8 mb 0.03 in0.8 mm 0.00 in0.0 mm 1.98 in50.3 mm
10:47 AM 61.5°F16.4°C 56.6°F13.7°C 84% 19.0 mph NE30.6 kmh NE 34.0 mph54.7 kmh 29.14 in986.8 mb 0.03 in0.8 mm 0.00 in0.0 mm 1.98 in50.3 mm
10:48 AM 61.5°F16.4°C 56.6°F13.7°C 84% 19.0 mph NE30.6 kmh NE 34.0 mph54.7 kmh 29.14 in986.8 mb 0.03 in0.8 mm 0.00 in0.0 mm 1.98 in50.3 mm
10:49 AM 61.3°F16.3°C 56.1°F13.4°C 83% 19.0 mph NE30.6 kmh NE 34.0 mph54.7 kmh 29.14 in986.8 mb 0.03 in0.8 mm 0.00 in0.0 mm 1.98 in50.3 mm
10:50 AM 61.3°F16.3°C 56.1°F13.4°C 83% 19.0 mph NE30.6 kmh NE 34.0 mph54.7 kmh 29.14 in986.8 mb 0.03 in0.8 mm 0.00 in0.0 mm 1.98 in50.3 mm
10:51 AM 61.3°F16.3°C 55.8°F13.2°C 82% 20.0 mph NE32.2 kmh NE 31.0 mph49.9 kmh 29.14 in986.8 mb 0.03 in0.8 mm 0.00 in0.0 mm 1.98 in50.3 mm
10:52 AM 61.3°F16.3°C 55.8°F13.2°C 82% 20.0 mph NE32.2 kmh NE 31.0 mph49.9 kmh 29.14 in986.8 mb 0.03 in0.8 mm 0.00 in0.0 mm 1.98 in50.3 mm
10:53 AM 61.3°F16.3°C 55.8°F13.2°C 82% 20.0 mph NE32.2 kmh NE 31.0 mph49.9 kmh 29.14 in986.8 mb 0.03 in0.8 mm 0.00 in0.0 mm 1.98 in50.3 mm
10:54 AM 61.3°F16.3°C 56.1°F13.4°C 83% 20.0 mph NE32.2 kmh NE 31.0 mph49.9 kmh 29.14 in986.8 mb 0.03 in0.8 mm 0.00 in0.0 mm 1.98 in50.3 mm
10:55 AM 61.3°F16.3°C 56.1°F13.4°C 83% 20.0 mph NE32.2 kmh NE 30.0 mph48.3 kmh 29.14 in986.8 mb 0.03 in0.8 mm 0.00 in0.0 mm 1.98 in50.3 mm
10:56 AM 61.3°F16.3°C 56.1°F13.4°C 83% 20.0 mph NE32.2 kmh NE 30.0 mph48.3 kmh 29.14 in986.8 mb 0.03 in0.8 mm 0.00 in0.0 mm 1.98 in50.3 mm
10:57 AM 61.3°F16.3°C 56.1°F13.4°C 83% 20.0 mph NE32.2 kmh NE 30.0 mph48.3 kmh 29.14 in986.8 mb 0.03 in0.8 mm 0.00 in0.0 mm 1.98 in50.3 mm
10:58 AM 61.3°F16.3°C 56.5°F13.6°C 84% 20.0 mph NE32.2 kmh NE 30.0 mph48.3 kmh 29.14 in986.8 mb 0.03 in0.8 mm 0.00 in0.0 mm 1.98 in50.3 mm
10:59 AM 61.5°F16.4°C 56.3°F13.5°C 83% 19.0 mph NE30.6 kmh NE 30.0 mph48.3 kmh 29.14 in986.8 mb 0.03 in0.8 mm 0.00 in0.0 mm 1.98 in50.3 mm
11:00 AM 61.5°F16.4°C 56.0°F13.3°C 82% 19.0 mph NE30.6 kmh NE 34.0 mph54.7 kmh 29.14 in986.8 mb 0.03 in0.8 mm 0.00 in0.0 mm 1.98 in50.3 mm
11:01 AM 61.7°F16.5°C 56.1°F13.4°C 82% 19.0 mph NE30.6 kmh NE 34.0 mph54.7 kmh 29.14 in986.8 mb 0.03 in0.8 mm 0.00 in0.0 mm 1.98 in50.3 mm
11:02 AM 61.7°F16.5°C 56.1°F13.4°C 82% 19.0 mph NE30.6 kmh NE 34.0 mph54.7 kmh 29.14 in986.8 mb 0.03 in0.8 mm 0.00 in0.0 mm 1.98 in50.3 mm
11:03 AM 61.9°F16.6°C 56.3°F13.5°C 82% 19.0 mph NE30.6 kmh NE 34.0 mph54.7 kmh 29.15 in987.1 mb 0.03 in0.8 mm 0.00 in0.0 mm 1.98 in50.3 mm
11:04 AM 61.9°F16.6°C 56.3°F13.5°C 82% 19.0 mph NE30.6 kmh NE 34.0 mph54.7 kmh 29.14 in986.8 mb 0.02 in0.5 mm 0.00 in0.0 mm 1.98 in50.3 mm
11:05 AM 61.9°F16.6°C 56.3°F13.5°C 82% 19.0 mph NE30.6 kmh NE 34.0 mph54.7 kmh 29.14 in986.8 mb 0.02 in0.5 mm 0.00 in0.0 mm 1.98 in50.3 mm
11:06 AM 61.9°F16.6°C 56.0°F13.3°C 81% 19.0 mph NE30.6 kmh NE 34.0 mph54.7 kmh 29.15 in987.1 mb 0.02 in0.5 mm 0.00 in0.0 mm 1.98 in50.3 mm
11:07 AM 61.9°F16.6°C 56.0°F13.3°C 81% 19.0 mph NE30.6 kmh NE 34.0 mph54.7 kmh 29.14 in986.8 mb 0.02 in0.5 mm 0.00 in0.0 mm 1.98 in50.3 mm
11:08 AM 61.9°F16.6°C 56.0°F13.3°C 81% 19.0 mph NE30.6 kmh NE 34.0 mph54.7 kmh 29.14 in986.8 mb 0.02 in0.5 mm 0.00 in0.0 mm 1.98 in50.3 mm
11:09 AM 62.1°F16.7°C 56.2°F13.4°C 81% 19.0 mph NE30.6 kmh NE 34.0 mph54.7 kmh 29.14 in986.8 mb 0.02 in0.5 mm 0.00 in0.0 mm 1.98 in50.3 mm
11:10 AM 62.1°F16.7°C 56.2°F13.4°C 81% 19.0 mph NE30.6 kmh NE 33.0 mph53.1 kmh 29.14 in986.8 mb 0.02 in0.5 mm 0.00 in0.0 mm 1.98 in50.3 mm
11:11 AM 62.1°F16.7°C 56.2°F13.4°C 81% 19.0 mph NE30.6 kmh NE 33.0 mph53.1 kmh 29.15 in987.1 mb 0.02 in0.5 mm 0.00 in0.0 mm 1.98 in50.3 mm
11:12 AM 62.1°F16.7°C 56.2°F13.4°C 81% 19.0 mph NE30.6 kmh NE 33.0 mph53.1 kmh 29.15 in987.1 mb 0.02 in0.5 mm 0.00 in0.0 mm 1.98 in50.3 mm
11:13 AM 62.1°F16.7°C 56.2°F13.4°C 81% 19.0 mph NE30.6 kmh NE 33.0 mph53.1 kmh 29.14 in986.8 mb 0.01 in0.3 mm 0.00 in0.0 mm 1.98 in50.3 mm
11:14 AM 62.1°F16.7°C 55.8°F13.2°C 80% 19.0 mph NE30.6 kmh NE 33.0 mph53.1 kmh 29.15 in987.1 mb 0.01 in0.3 mm 0.00 in0.0 mm 1.98 in50.3 mm
11:15 AM 62.1°F16.7°C 56.2°F13.4°C 81% 19.0 mph NE30.6 kmh NE 31.0 mph49.9 kmh 29.15 in987.1 mb 0.01 in0.3 mm 0.00 in0.0 mm 1.98 in50.3 mm
11:16 AM 62.1°F16.7°C 56.2°F13.4°C 81% 19.0 mph NE30.6 kmh NE 31.0 mph49.9 kmh 29.15 in987.1 mb 0.01 in0.3 mm 0.00 in0.0 mm 1.98 in50.3 mm
11:17 AM 62.1°F16.7°C 56.5°F13.6°C 82% 19.0 mph NE30.6 kmh NE 31.0 mph49.9 kmh 29.15 in987.1 mb 0.00 in0.0 mm 0.00 in0.0 mm 1.98 in50.3 mm
11:18 AM 62.1°F16.7°C 56.2°F13.4°C 81% 18.0 mph NE29.0 kmh NE 36.0 mph57.9 kmh 29.15 in987.1 mb 0.00 in0.0 mm 0.00 in0.0 mm 1.98 in50.3 mm
11:19 AM 62.1°F16.7°C 56.2°F13.4°C 81% 18.0 mph NE29.0 kmh NE 36.0 mph57.9 kmh 29.15 in987.1 mb 0.00 in0.0 mm 0.00 in0.0 mm 1.98 in50.3 mm
11:20 AM 62.1°F16.7°C 55.8°F13.2°C 80% 18.0 mph NE29.0 kmh NE 36.0 mph57.9 kmh 29.15 in987.1 mb 0.00 in0.0 mm 0.00 in0.0 mm 1.98 in50.3 mm
11:21 AM 62.1°F16.7°C 55.8°F13.2°C 80% 18.0 mph NE29.0 kmh NE 36.0 mph57.9 kmh 29.15 in987.1 mb 0.00 in0.0 mm 0.00 in0.0 mm 1.98 in50.3 mm
11:22 AM 62.1°F16.7°C 55.8°F13.2°C 80% 18.0 mph NE29.0 kmh NE 36.0 mph57.9 kmh 29.15 in987.1 mb 0.00 in0.0 mm 0.00 in0.0 mm 1.98 in50.3 mm
11:23 AM 62.1°F16.7°C 55.8°F13.2°C 80% 18.0 mph NE29.0 kmh NE 36.0 mph57.9 kmh 29.15 in987.1 mb 0.00 in0.0 mm 0.00 in0.0 mm 1.98 in50.3 mm
11:24 AM 62.1°F16.7°C 55.8°F13.2°C 80% 18.0 mph NE29.0 kmh NE 36.0 mph57.9 kmh 29.15 in987.1 mb 0.00 in0.0 mm 0.00 in0.0 mm 1.98 in50.3 mm
11:25 AM 62.1°F16.7°C 55.8°F13.2°C 80% 18.0 mph NE29.0 kmh NE 36.0 mph57.9 kmh 29.15 in987.1 mb 0.00 in0.0 mm 0.00 in0.0 mm 1.98 in50.3 mm
11:26 AM 62.1°F16.7°C 55.8°F13.2°C 80% 18.0 mph NE29.0 kmh NE 36.0 mph57.9 kmh 29.15 in987.1 mb 0.00 in0.0 mm 0.00 in0.0 mm 1.98 in50.3 mm
11:27 AM 62.1°F16.7°C 56.2°F13.4°C 81% 18.0 mph NE29.0 kmh NE 36.0 mph57.9 kmh 29.15 in987.1 mb 0.00 in0.0 mm 0.00 in0.0 mm 1.98 in50.3 mm
11:28 AM 62.1°F16.7°C 56.2°F13.4°C 81% 18.0 mph NE29.0 kmh NE 32.0 mph51.5 kmh 29.15 in987.1 mb 0.00 in0.0 mm 0.00 in0.0 mm 1.98 in50.3 mm
11:29 AM 61.9°F16.6°C 56.0°F13.3°C 81% 18.0 mph NE29.0 kmh NE 29.0 mph46.7 kmh 29.15 in987.1 mb 0.00 in0.0 mm 0.00 in0.0 mm 1.98 in50.3 mm
11:30 AM 61.9°F16.6°C 56.0°F13.3°C 81% 18.0 mph NE29.0 kmh NE 29.0 mph46.7 kmh 29.15 in987.1 mb 0.00 in0.0 mm 0.00 in0.0 mm 1.98 in50.3 mm
11:31 AM 61.9°F16.6°C 56.3°F13.5°C 82% 18.0 mph NE29.0 kmh NE 29.0 mph46.7 kmh 29.15 in987.1 mb 0.00 in0.0 mm 0.00 in0.0 mm 1.98 in50.3 mm
11:32 AM 61.7°F16.5°C 56.5°F13.6°C 83% 19.0 mph NE30.6 kmh NE 29.0 mph46.7 kmh 29.15 in987.1 mb 0.00 in0.0 mm 0.00 in0.0 mm 1.98 in50.3 mm
11:33 AM 61.5°F16.4°C 56.3°F13.5°C 83% 19.0 mph NE30.6 kmh NE 29.0 mph46.7 kmh 29.15 in987.1 mb 0.00 in0.0 mm 0.00 in0.0 mm 1.98 in50.3 mm
11:34 AM 61.3°F16.3°C 56.5°F13.6°C 84% 18.0 mph NE29.0 kmh NE 29.0 mph46.7 kmh 29.15 in987.1 mb 0.00 in0.0 mm 0.00 in0.0 mm 1.98 in50.3 mm
11:35 AM 61.2°F16.2°C 56.3°F13.5°C 84% 18.0 mph NE29.0 kmh NE 29.0 mph46.7 kmh 29.16 in987.5 mb 0.00 in0.0 mm 0.00 in0.0 mm 1.98 in50.3 mm
11:36 AM 61.0°F16.1°C 56.1°F13.4°C 84% 18.0 mph NE29.0 kmh NE 27.0 mph43.5 kmh 29.15 in987.1 mb 0.00 in0.0 mm 0.00 in0.0 mm 1.98 in50.3 mm
11:37 AM 61.0°F16.1°C 56.1°F13.4°C 84% 18.0 mph NE29.0 kmh NE 27.0 mph43.5 kmh 29.15 in987.1 mb 0.00 in0.0 mm 0.00 in0.0 mm 1.98 in50.3 mm
11:38 AM 61.0°F16.1°C 56.1°F13.4°C 84% 18.0 mph NE29.0 kmh NE 27.0 mph43.5 kmh 29.15 in987.1 mb 0.00 in0.0 mm 0.00 in0.0 mm 1.98 in50.3 mm
11:39 AM 61.0°F16.1°C 56.4°F13.6°C 85% 18.0 mph NE29.0 kmh NE 26.0 mph41.8 kmh 29.15 in987.1 mb 0.00 in0.0 mm 0.00 in0.0 mm 1.98 in50.3 mm
11:40 AM 61.0°F16.1°C 56.4°F13.6°C 85% 17.0 mph NE27.4 kmh NE 28.0 mph45.1 kmh 29.15 in987.1 mb 0.00 in0.0 mm 0.00 in0.0 mm 1.98 in50.3 mm
11:41 AM 61.0°F16.1°C 56.1°F13.4°C 84% 17.0 mph NE27.4 kmh NE 28.0 mph45.1 kmh 29.15 in987.1 mb 0.00 in0.0 mm 0.00 in0.0 mm 1.98 in50.3 mm
11:42 AM 61.2°F16.2°C 56.3°F13.5°C 84% 17.0 mph NE27.4 kmh NE 33.0 mph53.1 kmh 29.15 in987.1 mb 0.00 in0.0 mm 0.00 in0.0 mm 1.98 in50.3 mm
11:43 AM 61.2°F16.2°C 56.0°F13.3°C 83% 17.0 mph NE27.4 kmh NE 33.0 mph53.1 kmh 29.15 in987.1 mb 0.00 in0.0 mm 0.00 in0.0 mm 1.98 in50.3 mm
11:44 AM 61.2°F16.2°C 56.0°F13.3°C 83% 17.0 mph NE27.4 kmh NE 33.0 mph53.1 kmh 29.15 in987.1 mb 0.00 in0.0 mm 0.00 in0.0 mm 1.98 in50.3 mm
11:45 AM 61.2°F16.2°C 56.0°F13.3°C 83% 17.0 mph NE27.4 kmh NE 33.0 mph53.1 kmh 29.16 in987.5 mb 0.00 in0.0 mm 0.00 in0.0 mm 1.98 in50.3 mm
11:46 AM 61.2°F16.2°C 56.0°F13.3°C 83% 17.0 mph NE27.4 kmh NE 33.0 mph53.1 kmh 29.16 in987.5 mb 0.00 in0.0 mm 0.00 in0.0 mm 1.98 in50.3 mm
11:47 AM 61.2°F16.2°C 56.0°F13.3°C 83% 17.0 mph NE27.4 kmh NE 33.0 mph53.1 kmh 29.16 in987.5 mb 0.00 in0.0 mm 0.00 in0.0 mm 1.98 in50.3 mm
11:48 AM 61.0°F16.1°C 56.1°F13.4°C 84% 17.0 mph NE27.4 kmh NE 33.0 mph53.1 kmh 29.16 in987.5 mb 0.00 in0.0 mm 0.00 in0.0 mm 1.98 in50.3 mm
11:49 AM 61.0°F16.1°C 56.1°F13.4°C 84% 17.0 mph NE27.4 kmh NE 33.0 mph53.1 kmh 29.16 in987.5 mb 0.00 in0.0 mm 0.00 in0.0 mm 1.98 in50.3 mm
11:50 AM 60.8°F16.0°C 56.3°F13.5°C 85% 17.0 mph NE27.4 kmh NE 33.0 mph53.1 kmh 29.16 in987.5 mb 0.01 in0.3 mm 0.60 in15.2 mm 1.98 in50.3 mm
11:51 AM 60.6°F15.9°C 56.1°F13.4°C 85% 17.0 mph NE27.4 kmh NE 33.0 mph53.1 kmh 29.16 in987.5 mb 0.01 in0.3 mm 0.00 in0.0 mm 1.98 in50.3 mm
11:52 AM 60.4°F15.8°C 55.9°F13.3°C 85% 17.0 mph NE27.4 kmh NE 29.0 mph46.7 kmh 29.16 in987.5 mb 0.01 in0.3 mm 0.00 in0.0 mm 1.98 in50.3 mm
11:53 AM 60.4°F15.8°C 56.2°F13.4°C 86% 17.0 mph NE27.4 kmh NE 29.0 mph46.7 kmh 29.16 in987.5 mb 0.02 in0.5 mm 0.60 in15.2 mm 1.99 in50.5 mm
11:54 AM 60.3°F15.7°C 56.1°F13.4°C 86% 17.0 mph NE27.4 kmh NE 29.0 mph46.7 kmh 29.15 in987.1 mb 0.02 in0.5 mm 0.00 in0.0 mm 1.99 in50.5 mm
11:55 AM 60.3°F15.7°C 56.1°F13.4°C 86% 17.0 mph NE27.4 kmh NE 29.0 mph46.7 kmh 29.15 in987.1 mb 0.02 in0.5 mm 0.00 in0.0 mm 1.99 in50.5 mm
11:56 AM 60.1°F15.6°C 56.2°F13.4°C 87% 17.0 mph NE27.4 kmh NE 27.0 mph43.5 kmh 29.15 in987.1 mb 0.02 in0.5 mm 0.00 in0.0 mm 1.99 in50.5 mm
11:57 AM 60.1°F15.6°C 56.2°F13.4°C 87% 17.0 mph NE27.4 kmh NE 24.0 mph38.6 kmh 29.15 in987.1 mb 0.02 in0.5 mm 0.00 in0.0 mm 1.99 in50.5 mm
11:58 AM 60.1°F15.6°C 56.2°F13.4°C 87% 16.0 mph NE25.7 kmh NE 24.0 mph38.6 kmh 29.16 in987.5 mb 0.02 in0.5 mm 0.00 in0.0 mm 1.99 in50.5 mm
11:59 AM 59.9°F15.5°C 56.0°F13.3°C 87% 16.0 mph NE25.7 kmh NE 26.0 mph41.8 kmh 29.15 in987.1 mb 0.02 in0.5 mm 0.00 in0.0 mm 2.00 in50.8 mm
12:00 PM 59.9°F15.5°C 56.0°F13.3°C 87% 15.0 mph NE24.1 kmh NE 26.0 mph41.8 kmh 29.15 in987.1 mb 0.02 in0.5 mm 0.00 in0.0 mm 2.00 in50.8 mm
12:01 PM 59.7°F15.4°C 55.8°F13.2°C 87% 15.0 mph NE24.1 kmh NE 26.0 mph41.8 kmh 29.16 in987.5 mb 0.02 in0.5 mm 0.00 in0.0 mm 2.00 in50.8 mm
12:02 PM 59.7°F15.4°C 55.8°F13.2°C 87% 14.0 mph NE22.5 kmh NE 30.0 mph48.3 kmh 29.15 in987.1 mb 0.02 in0.5 mm 0.00 in0.0 mm 2.00 in50.8 mm
12:03 PM 59.7°F15.4°C 55.8°F13.2°C 87% 14.0 mph NE22.5 kmh NE 34.0 mph54.7 kmh 29.15 in987.1 mb 0.02 in0.5 mm 0.00 in0.0 mm 2.00 in50.8 mm
12:04 PM 59.9°F15.5°C 56.0°F13.3°C 87% 14.0 mph NE22.5 kmh NE 34.0 mph54.7 kmh 29.15 in987.1 mb 0.02 in0.5 mm 0.00 in0.0 mm 2.00 in50.8 mm
12:05 PM 60.1°F15.6°C 56.2°F13.4°C 87% 13.0 mph NE20.9 kmh NE 34.0 mph54.7 kmh 29.16 in987.5 mb 0.02 in0.5 mm 0.00 in0.0 mm 2.00 in50.8 mm
12:06 PM 60.1°F15.6°C 55.9°F13.3°C 86% 13.0 mph NE20.9 kmh NE 34.0 mph54.7 kmh 29.15 in987.1 mb 0.02 in0.5 mm 0.00 in0.0 mm 2.00 in50.8 mm
12:07 PM 60.3°F15.7°C 56.1°F13.4°C 86% 13.0 mph NE20.9 kmh NE 34.0 mph54.7 kmh 29.15 in987.1 mb 0.02 in0.5 mm 0.00 in0.0 mm 2.00 in50.8 mm
12:08 PM 60.4°F15.8°C 55.9°F13.3°C 85% 14.0 mph NE22.5 kmh NE 34.0 mph54.7 kmh 29.15 in987.1 mb 0.02 in0.5 mm 0.00 in0.0 mm 2.00 in50.8 mm
12:09 PM 60.6°F15.9°C 56.1°F13.4°C 85% 14.0 mph NE22.5 kmh NE 34.0 mph54.7 kmh 29.15 in987.1 mb 0.02 in0.5 mm 0.00 in0.0 mm 2.00 in50.8 mm
12:10 PM 61.0°F16.1°C 56.1°F13.4°C 84% 14.0 mph NE22.5 kmh NE 36.0 mph57.9 kmh 29.15 in987.1 mb 0.02 in0.5 mm 0.00 in0.0 mm 2.00 in50.8 mm
12:11 PM 61.2°F16.2°C 56.0°F13.3°C 83% 15.0 mph NE24.1 kmh NE 36.0 mph57.9 kmh 29.15 in987.1 mb 0.02 in0.5 mm 0.00 in0.0 mm 2.00 in50.8 mm
12:12 PM 61.3°F16.3°C 56.1°F13.4°C 83% 16.0 mph NE25.7 kmh NE 42.0 mph67.6 kmh 29.15 in987.1 mb 0.02 in0.5 mm 0.00 in0.0 mm 2.00 in50.8 mm
12:13 PM 61.5°F16.4°C 56.0°F13.3°C 82% 17.0 mph NE27.4 kmh NE 42.0 mph67.6 kmh 29.15 in987.1 mb 0.02 in0.5 mm 0.00 in0.0 mm 2.00 in50.8 mm
12:14 PM 61.5°F16.4°C 56.0°F13.3°C 82% 18.0 mph NE29.0 kmh NE 42.0 mph67.6 kmh 29.16 in987.5 mb 0.02 in0.5 mm 0.00 in0.0 mm 2.00 in50.8 mm
12:15 PM 61.5°F16.4°C 55.6°F13.1°C 81% 18.0 mph NE29.0 kmh NE 42.0 mph67.6 kmh 29.16 in987.5 mb 0.02 in0.5 mm 0.00 in0.0 mm 2.00 in50.8 mm
12:16 PM 61.5°F16.4°C 55.6°F13.1°C 81% 19.0 mph NE30.6 kmh NE 42.0 mph67.6 kmh 29.15 in987.1 mb 0.02 in0.5 mm 0.00 in0.0 mm 2.00 in50.8 mm
12:17 PM 61.5°F16.4°C 55.3°F12.9°C 80% 20.0 mph NE32.2 kmh NE 42.0 mph67.6 kmh 29.16 in987.5 mb 0.02 in0.5 mm 0.00 in0.0 mm 2.00 in50.8 mm
12:18 PM 61.7°F16.5°C 55.8°F13.2°C 81% 21.0 mph NE33.8 kmh NE 42.0 mph67.6 kmh 29.16 in987.5 mb 0.02 in0.5 mm 0.00 in0.0 mm 2.00 in50.8 mm
12:19 PM 61.9°F16.6°C 55.3°F12.9°C 79% 21.0 mph NE33.8 kmh NE 42.0 mph67.6 kmh 29.15 in987.1 mb 0.02 in0.5 mm 0.00 in0.0 mm 2.00 in50.8 mm
12:20 PM 61.9°F16.6°C 55.3°F12.9°C 79% 22.0 mph NNE35.4 kmh NNE 42.0 mph67.6 kmh 29.16 in987.5 mb 0.02 in0.5 mm 0.00 in0.0 mm 2.00 in50.8 mm
12:21 PM 62.1°F16.7°C 55.5°F13.1°C 79% 22.0 mph NE35.4 kmh NE 42.0 mph67.6 kmh 29.15 in987.1 mb 0.02 in0.5 mm 0.00 in0.0 mm 2.00 in50.8 mm
12:22 PM 62.1°F16.7°C 55.8°F13.2°C 80% 22.0 mph NE35.4 kmh NE 42.0 mph67.6 kmh 29.16 in987.5 mb 0.02 in0.5 mm 0.00 in0.0 mm 2.00 in50.8 mm
12:23 PM 61.9°F16.6°C 55.6°F13.1°C 80% 23.0 mph NE37.0 kmh NE 42.0 mph67.6 kmh 29.16 in987.5 mb 0.02 in0.5 mm 0.00 in0.0 mm 2.00 in50.8 mm
12:24 PM 61.9°F16.6°C 55.6°F13.1°C 80% 23.0 mph NE37.0 kmh NE 42.0 mph67.6 kmh 29.16 in987.5 mb 0.02 in0.5 mm 0.00 in0.0 mm 2.00 in50.8 mm
12:25 PM 61.9°F16.6°C 56.0°F13.3°C 81% 23.0 mph NE37.0 kmh NE 42.0 mph67.6 kmh 29.16 in987.5 mb 0.02 in0.5 mm 0.00 in0.0 mm 2.00 in50.8 mm
12:26 PM 61.9°F16.6°C 56.3°F13.5°C 82% 23.0 mph NE37.0 kmh NE 42.0 mph67.6 kmh 29.16 in987.5 mb 0.02 in0.5 mm 0.00 in0.0 mm 2.00 in50.8 mm
12:27 PM 61.5°F16.4°C 55.6°F13.1°C 81% 24.0 mph NE38.6 kmh NE 42.0 mph67.6 kmh 29.16 in987.5 mb 0.02 in0.5 mm 0.00 in0.0 mm 2.00 in50.8 mm
12:28 PM 61.5°F16.4°C 55.6°F13.1°C 81% 24.0 mph NE38.6 kmh NE 42.0 mph67.6 kmh 29.16 in987.5 mb 0.02 in0.5 mm 0.00 in0.0 mm 2.00 in50.8 mm
12:29 PM 61.5°F16.4°C 55.6°F13.1°C 81% 24.0 mph NE38.6 kmh NE 39.0 mph62.8 kmh 29.16 in987.5 mb 0.02 in0.5 mm 0.00 in0.0 mm 2.00 in50.8 mm
12:30 PM 61.5°F16.4°C 55.6°F13.1°C 81% 24.0 mph NE38.6 kmh NE 39.0 mph62.8 kmh 29.16 in987.5 mb 0.02 in0.5 mm 0.00 in0.0 mm 2.00 in50.8 mm
12:31 PM 61.7°F16.5°C 55.8°F13.2°C 81% 24.0 mph NE38.6 kmh NE 39.0 mph62.8 kmh 29.16 in987.5 mb 0.02 in0.5 mm 0.00 in0.0 mm 2.00 in50.8 mm
12:32 PM 61.9°F16.6°C 56.0°F13.3°C 81% 24.0 mph NE38.6 kmh NE 39.0 mph62.8 kmh 29.16 in987.5 mb 0.02 in0.5 mm 0.00 in0.0 mm 2.00 in50.8 mm
12:33 PM 62.1°F16.7°C 56.2°F13.4°C 81% 23.0 mph NE37.0 kmh NE 39.0 mph62.8 kmh 29.16 in987.5 mb 0.02 in0.5 mm 0.00 in0.0 mm 2.00 in50.8 mm
12:34 PM 62.2°F16.8°C 56.0°F13.3°C 80% 23.0 mph NE37.0 kmh NE 39.0 mph62.8 kmh 29.16 in987.5 mb 0.02 in0.5 mm 0.00 in0.0 mm 2.00 in50.8 mm
12:35 PM 62.4°F16.9°C 56.2°F13.4°C 80% 23.0 mph NE37.0 kmh NE 39.0 mph62.8 kmh 29.16 in987.5 mb 0.02 in0.5 mm 0.00 in0.0 mm 2.00 in50.8 mm
12:36 PM 62.8°F17.1°C 56.2°F13.4°C 79% 23.0 mph NE37.0 kmh NE 39.0 mph62.8 kmh 29.16 in987.5 mb 0.02 in0.5 mm 0.00 in0.0 mm 2.00 in50.8 mm
12:37 PM 62.8°F17.1°C 55.8°F13.2°C 78% 22.0 mph NE35.4 kmh NE 39.0 mph62.8 kmh 29.16 in987.5 mb 0.02 in0.5 mm 0.00 in0.0 mm 2.00 in50.8 mm
12:38 PM 63.0°F17.2°C 56.3°F13.5°C 79% 22.0 mph NE35.4 kmh NE 35.0 mph56.3 kmh 29.16 in987.5 mb 0.02 in0.5 mm 0.00 in0.0 mm 2.00 in50.8 mm
12:39 PM 63.0°F17.2°C 56.3°F13.5°C 79% 22.0 mph NE35.4 kmh NE 35.0 mph56.3 kmh 29.16 in987.5 mb 0.02 in0.5 mm 0.00 in0.0 mm 2.00 in50.8 mm
12:40 PM 62.8°F17.1°C 56.2°F13.4°C 79% 21.0 mph NE33.8 kmh NE 39.0 mph62.8 kmh 29.16 in987.5 mb 0.02 in0.5 mm 0.00 in0.0 mm 2.00 in50.8 mm
12:41 PM 62.6°F17.0°C 56.0°F13.3°C 79% 21.0 mph NE33.8 kmh NE 39.0 mph62.8 kmh 29.16 in987.5 mb 0.02 in0.5 mm 0.00 in0.0 mm 2.00 in50.8 mm
12:42 PM 62.4°F16.9°C 55.8°F13.2°C 79% 21.0 mph NE33.8 kmh NE 39.0 mph62.8 kmh 29.16 in987.5 mb 0.02 in0.5 mm 0.00 in0.0 mm 2.00 in50.8 mm
12:43 PM 62.4°F16.9°C 56.2°F13.4°C 80% 21.0 mph NE33.8 kmh NE 39.0 mph62.8 kmh 29.16 in987.5 mb 0.02 in0.5 mm 0.00 in0.0 mm 2.00 in50.8 mm
12:44 PM 62.4°F16.9°C 56.2°F13.4°C 80% 21.0 mph NE33.8 kmh NE 39.0 mph62.8 kmh 29.16 in987.5 mb 0.02 in0.5 mm 0.00 in0.0 mm 2.00 in50.8 mm
12:45 PM 62.4°F16.9°C 56.2°F13.4°C 80% 21.0 mph NE33.8 kmh NE 39.0 mph62.8 kmh 29.16 in987.5 mb 0.02 in0.5 mm 0.00 in0.0 mm 2.00 in50.8 mm
12:46 PM 62.4°F16.9°C 56.2°F13.4°C 80% 21.0 mph NE33.8 kmh NE 39.0 mph62.8 kmh 29.16 in987.5 mb 0.02 in0.5 mm 0.00 in0.0 mm 2.00 in50.8 mm
12:47 PM 62.6°F17.0°C 56.3°F13.5°C 80% 21.0 mph NE33.8 kmh NE 39.0 mph62.8 kmh 29.17 in987.8 mb 0.02 in0.5 mm 0.00 in0.0 mm 2.00 in50.8 mm
12:48 PM 62.4°F16.9°C 55.8°F13.2°C 79% 21.0 mph NE33.8 kmh NE 39.0 mph62.8 kmh 29.16 in987.5 mb 0.02 in0.5 mm 0.00 in0.0 mm 2.00 in50.8 mm
12:49 PM 62.4°F16.9°C 55.8°F13.2°C 79% 22.0 mph NE35.4 kmh NE 39.0 mph62.8 kmh 29.16 in987.5 mb 0.02 in0.5 mm 0.00 in0.0 mm 2.00 in50.8 mm
12:50 PM 62.2°F16.8°C 55.6°F13.1°C 79% 22.0 mph NE35.4 kmh NE 36.0 mph57.9 kmh 29.16 in987.5 mb 0.02 in0.5 mm 0.00 in0.0 mm 2.00 in50.8 mm
12:51 PM 62.2°F16.8°C 56.0°F13.3°C 80% 22.0 mph NE35.4 kmh NE 36.0 mph57.9 kmh 29.16 in987.5 mb 0.02 in0.5 mm 0.00 in0.0 mm 2.00 in50.8 mm
12:52 PM 62.4°F16.9°C 56.2°F13.4°C 80% 22.0 mph NE35.4 kmh NE 36.0 mph57.9 kmh 29.16 in987.5 mb 0.01 in0.3 mm 0.00 in0.0 mm 2.00 in50.8 mm
12:53 PM 62.4°F16.9°C 56.2°F13.4°C 80% 22.0 mph NE35.4 kmh NE 36.0 mph57.9 kmh 29.17 in987.8 mb 0.01 in0.3 mm 0.00 in0.0 mm 2.00 in50.8 mm
12:54 PM 62.4°F16.9°C 56.2°F13.4°C 80% 22.0 mph NE35.4 kmh NE 36.0 mph57.9 kmh 29.17 in987.8 mb 0.01 in0.3 mm 0.00 in0.0 mm 2.00 in50.8 mm
12:55 PM 62.2°F16.8°C 56.0°F13.3°C 80% 22.0 mph NE35.4 kmh NE 32.0 mph51.5 kmh 29.17 in987.8 mb 0.01 in0.3 mm 0.00 in0.0 mm 2.00 in50.8 mm
12:56 PM 62.2°F16.8°C 56.0°F13.3°C 80% 22.0 mph NE35.4 kmh NE 37.0 mph59.5 kmh 29.17 in987.8 mb 0.01 in0.3 mm 0.00 in0.0 mm 2.00 in50.8 mm
12:57 PM 62.2°F16.8°C 56.0°F13.3°C 80% 21.0 mph NE33.8 kmh NE 37.0 mph59.5 kmh 29.17 in987.8 mb 0.01 in0.3 mm 0.00 in0.0 mm 2.00 in50.8 mm
12:58 PM 62.2°F16.8°C 56.0°F13.3°C 80% 21.0 mph NE33.8 kmh NE 37.0 mph59.5 kmh 29.17 in987.8 mb 0.01 in0.3 mm 0.00 in0.0 mm 2.00 in50.8 mm
12:59 PM 62.1°F16.7°C 55.8°F13.2°C 80% 21.0 mph NE33.8 kmh NE 37.0 mph59.5 kmh 29.17 in987.8 mb 0.00 in0.0 mm 0.00 in0.0 mm 2.00 in50.8 mm
01:00 PM 62.1°F16.7°C 55.8°F13.2°C 80% 21.0 mph NE33.8 kmh NE 37.0 mph59.5 kmh 29.17 in987.8 mb 0.00 in0.0 mm 0.00 in0.0 mm 2.00 in50.8 mm
01:01 PM 62.1°F16.7°C 56.2°F13.4°C 81% 20.0 mph NE32.2 kmh NE 37.0 mph59.5 kmh 29.17 in987.8 mb 0.00 in0.0 mm 0.00 in0.0 mm 2.00 in50.8 mm
01:02 PM 62.1°F16.7°C 56.2°F13.4°C 81% 20.0 mph NE32.2 kmh NE 37.0 mph59.5 kmh 29.17 in987.8 mb 0.00 in0.0 mm 0.00 in0.0 mm 2.00 in50.8 mm
01:03 PM 61.7°F16.5°C 56.1°F13.4°C 82% 20.0 mph NE32.2 kmh NE 37.0 mph59.5 kmh 29.16 in987.5 mb 0.00 in0.0 mm 0.00 in0.0 mm 2.00 in50.8 mm
01:04 PM 61.5°F16.4°C 56.3°F13.5°C 83% 20.0 mph NE32.2 kmh NE 37.0 mph59.5 kmh 29.17 in987.8 mb 0.00 in0.0 mm 0.00 in0.0 mm 2.00 in50.8 mm
01:05 PM 61.5°F16.4°C 56.3°F13.5°C 83% 19.0 mph NE30.6 kmh NE 37.0 mph59.5 kmh 29.17 in987.8 mb 0.00 in0.0 mm 0.00 in0.0 mm 2.00 in50.8 mm
01:06 PM 61.5°F16.4°C 56.3°F13.5°C 83% 19.0 mph NE30.6 kmh NE 35.0 mph56.3 kmh 29.17 in987.8 mb 0.00 in0.0 mm 0.00 in0.0 mm 2.00 in50.8 mm
01:07 PM 61.5°F16.4°C 56.3°F13.5°C 83% 19.0 mph NE30.6 kmh NE 35.0 mph56.3 kmh 29.17 in987.8 mb 0.00 in0.0 mm 0.00 in0.0 mm 2.00 in50.8 mm
01:08 PM 61.7°F16.5°C 56.5°F13.6°C 83% 19.0 mph NE30.6 kmh NE 35.0 mph56.3 kmh 29.18 in988.1 mb 0.00 in0.0 mm 0.00 in0.0 mm 2.00 in50.8 mm
01:09 PM 61.9°F16.6°C 55.6°F13.1°C 80% 19.0 mph NE30.6 kmh NE 41.0 mph66.0 kmh 29.17 in987.8 mb 0.00 in0.0 mm 0.00 in0.0 mm 2.00 in50.8 mm
01:10 PM 61.9°F16.6°C 55.6°F13.1°C 80% 19.0 mph NE30.6 kmh NE 41.0 mph66.0 kmh 29.17 in987.8 mb 0.00 in0.0 mm 0.00 in0.0 mm 2.00 in50.8 mm
01:11 PM 62.1°F16.7°C 55.8°F13.2°C 80% 20.0 mph NE32.2 kmh NE 41.0 mph66.0 kmh 29.17 in987.8 mb 0.00 in0.0 mm 0.00 in0.0 mm 2.00 in50.8 mm
01:12 PM 62.2°F16.8°C 56.3°F13.5°C 81% 20.0 mph NE32.2 kmh NE 41.0 mph66.0 kmh 29.17 in987.8 mb 0.00 in0.0 mm 0.00 in0.0 mm 2.00 in50.8 mm
01:13 PM 62.2°F16.8°C 56.0°F13.3°C 80% 20.0 mph NE32.2 kmh NE 41.0 mph66.0 kmh 29.17 in987.8 mb 0.00 in0.0 mm 0.00 in0.0 mm 2.00 in50.8 mm
01:14 PM 62.2°F16.8°C 56.0°F13.3°C 80% 21.0 mph NE33.8 kmh NE 41.0 mph66.0 kmh 29.17 in987.8 mb 0.00 in0.0 mm 0.00 in0.0 mm 2.00 in50.8 mm
01:15 PM 62.2°F16.8°C 56.0°F13.3°C 80% 21.0 mph NE33.8 kmh NE 41.0 mph66.0 kmh 29.17 in987.8 mb 0.00 in0.0 mm 0.00 in0.0 mm 2.00 in50.8 mm
01:16 PM 62.1°F16.7°C 55.8°F13.2°C 80% 21.0 mph NE33.8 kmh NE 41.0 mph66.0 kmh 29.18 in988.1 mb 0.00 in0.0 mm 0.00 in0.0 mm 2.00 in50.8 mm
01:17 PM 61.9°F16.6°C 55.6°F13.1°C 80% 21.0 mph NE33.8 kmh NE 41.0 mph66.0 kmh 29.17 in987.8 mb 0.00 in0.0 mm 0.00 in0.0 mm 2.00 in50.8 mm
01:18 PM 61.7°F16.5°C 55.5°F13.1°C 80% 22.0 mph NE35.4 kmh NE 41.0 mph66.0 kmh 29.18 in988.1 mb 0.00 in0.0 mm 0.00 in0.0 mm 2.00 in50.8 mm
01:19 PM 61.5°F16.4°C 55.6°F13.1°C 81% 22.0 mph NE35.4 kmh NE 41.0 mph66.0 kmh 29.18 in988.1 mb 0.00 in0.0 mm 0.00 in0.0 mm 2.00 in50.8 mm
01:20 PM 61.3°F16.3°C 55.5°F13.1°C 81% 22.0 mph NE35.4 kmh NE 41.0 mph66.0 kmh 29.18 in988.1 mb 0.00 in0.0 mm 0.00 in0.0 mm 2.00 in50.8 mm
01:21 PM 61.3°F16.3°C 55.5°F13.1°C 81% 22.0 mph NE35.4 kmh NE 41.0 mph66.0 kmh 29.17 in987.8 mb 0.00 in0.0 mm 0.00 in0.0 mm 2.00 in50.8 mm
01:22 PM 61.2°F16.2°C 55.3°F12.9°C 81% 22.0 mph NE35.4 kmh NE 41.0 mph66.0 kmh 29.18 in988.1 mb 0.00 in0.0 mm 0.00 in0.0 mm 2.00 in50.8 mm
01:23 PM 61.3°F16.3°C 55.8°F13.2°C 82% 22.0 mph NE35.4 kmh NE 41.0 mph66.0 kmh 29.17 in987.8 mb 0.00 in0.0 mm 0.00 in0.0 mm 2.00 in50.8 mm
01:24 PM 61.3°F16.3°C 55.8°F13.2°C 82% 22.0 mph NE35.4 kmh NE 41.0 mph66.0 kmh 29.18 in988.1 mb 0.00 in0.0 mm 0.00 in0.0 mm 2.00 in50.8 mm
01:25 PM 61.5°F16.4°C 56.0°F13.3°C 82% 22.0 mph NE35.4 kmh NE 41.0 mph66.0 kmh 29.18 in988.1 mb 0.00 in0.0 mm 0.00 in0.0 mm 2.00 in50.8 mm
01:26 PM 61.7°F16.5°C 55.8°F13.2°C 81% 22.0 mph NE35.4 kmh NE 41.0 mph66.0 kmh 29.18 in988.1 mb 0.00 in0.0 mm 0.00 in0.0 mm 2.00 in50.8 mm
01:27 PM 61.9°F16.6°C 54.9°F12.7°C 78% 22.0 mph NE35.4 kmh NE 41.0 mph66.0 kmh 29.18 in988.1 mb 0.00 in0.0 mm 0.00 in0.0 mm 2.00 in50.8 mm
01:28 PM 62.1°F16.7°C 55.1°F12.8°C 78% 22.0 mph NE35.4 kmh NE 39.0 mph62.8 kmh 29.18 in988.1 mb 0.00 in0.0 mm 0.00 in0.0 mm 2.00 in50.8 mm
01:29 PM 62.2°F16.8°C 55.3°F12.9°C 78% 22.0 mph NE35.4 kmh NE 39.0 mph62.8 kmh 29.18 in988.1 mb 0.00 in0.0 mm 0.00 in0.0 mm 2.00 in50.8 mm
01:30 PM 62.4°F16.9°C 55.8°F13.2°C 79% 22.0 mph NE35.4 kmh NE 39.0 mph62.8 kmh 29.18 in988.1 mb 0.00 in0.0 mm 0.00 in0.0 mm 2.00 in50.8 mm
01:31 PM 62.4°F16.9°C 55.5°F13.1°C 78% 22.0 mph NE35.4 kmh NE 37.0 mph59.5 kmh 29.18 in988.1 mb 0.00 in0.0 mm 0.00 in0.0 mm 2.00 in50.8 mm
01:32 PM 62.4°F16.9°C 55.5°F13.1°C 78% 22.0 mph NE35.4 kmh NE 39.0 mph62.8 kmh 29.18 in988.1 mb 0.00 in0.0 mm 0.00 in0.0 mm 2.00 in50.8 mm
01:33 PM 62.6°F17.0°C 55.6°F13.1°C 78% 22.0 mph NE35.4 kmh NE 39.0 mph62.8 kmh 29.18 in988.1 mb 0.00 in0.0 mm 0.00 in0.0 mm 2.00 in50.8 mm
01:34 PM 62.8°F17.1°C 55.5°F13.1°C 77% 22.0 mph NE35.4 kmh NE 39.0 mph62.8 kmh 29.18 in988.1 mb 0.00 in0.0 mm 0.00 in0.0 mm 2.00 in50.8 mm
01:35 PM 62.8°F17.1°C 55.5°F13.1°C 77% 22.0 mph NE35.4 kmh NE 39.0 mph62.8 kmh 29.18 in988.1 mb 0.00 in0.0 mm 0.00 in0.0 mm 2.00 in50.8 mm
01:36 PM 63.0°F17.2°C 55.6°F13.1°C 77% 23.0 mph NE37.0 kmh NE 39.0 mph62.8 kmh 29.18 in988.1 mb 0.00 in0.0 mm 0.00 in0.0 mm 2.00 in50.8 mm
01:37 PM 63.0°F17.2°C 55.3°F12.9°C 76% 23.0 mph NE37.0 kmh NE 39.0 mph62.8 kmh 29.18 in988.1 mb 0.00 in0.0 mm 0.00 in0.0 mm 2.00 in50.8 mm
01:38 PM 63.1°F17.3°C 55.4°F13.0°C 76% 23.0 mph NE37.0 kmh NE 39.0 mph62.8 kmh 29.18 in988.1 mb 0.00 in0.0 mm 0.00 in0.0 mm 2.00 in50.8 mm
01:39 PM 63.1°F17.3°C 55.1°F12.8°C 75% 23.0 mph NE37.0 kmh NE 39.0 mph62.8 kmh 29.18 in988.1 mb 0.00 in0.0 mm 0.00 in0.0 mm 2.00 in50.8 mm
01:40 PM 63.1°F17.3°C 55.1°F12.8°C 75% 23.0 mph NE37.0 kmh NE 40.0 mph64.4 kmh 29.18 in988.1 mb 0.00 in0.0 mm 0.00 in0.0 mm 2.00 in50.8 mm
01:41 PM 63.1°F17.3°C 55.4°F13.0°C 76% 23.0 mph NE37.0 kmh NE 40.0 mph64.4 kmh 29.18 in988.1 mb 0.00 in0.0 mm 0.00 in0.0 mm 2.00 in50.8 mm
01:42 PM 63.1°F17.3°C 55.1°F12.8°C 75% 23.0 mph NE37.0 kmh NE 40.0 mph64.4 kmh 29.18 in988.1 mb 0.00 in0.0 mm 0.00 in0.0 mm 2.00 in50.8 mm
01:43 PM 63.1°F17.3°C 55.1°F12.8°C 75% 24.0 mph NE38.6 kmh NE 40.0 mph64.4 kmh 29.19 in988.5 mb 0.00 in0.0 mm 0.00 in0.0 mm 2.00 in50.8 mm
01:44 PM 63.1°F17.3°C 55.1°F12.8°C 75% 24.0 mph NE38.6 kmh NE 40.0 mph64.4 kmh 29.18 in988.1 mb 0.00 in0.0 mm 0.00 in0.0 mm 2.00 in50.8 mm
01:45 PM 63.3°F17.4°C 55.3°F12.9°C 75% 24.0 mph NE38.6 kmh NE 40.0 mph64.4 kmh 29.19 in988.5 mb 0.00 in0.0 mm 0.00 in0.0 mm 2.00 in50.8 mm
01:46 PM 63.3°F17.4°C 55.3°F12.9°C 75% 24.0 mph NE38.6 kmh NE 40.0 mph64.4 kmh 29.19 in988.5 mb 0.00 in0.0 mm 0.00 in0.0 mm 2.00 in50.8 mm
01:47 PM 63.3°F17.4°C 55.6°F13.1°C 76% 24.0 mph NE38.6 kmh NE 40.0 mph64.4 kmh 29.19 in988.5 mb 0.00 in0.0 mm 0.00 in0.0 mm 2.00 in50.8 mm
01:48 PM 63.3°F17.4°C 55.6°F13.1°C 76% 24.0 mph NE38.6 kmh NE 40.0 mph64.4 kmh 29.19 in988.5 mb 0.00 in0.0 mm 0.00 in0.0 mm 2.00 in50.8 mm
01:49 PM 63.3°F17.4°C 55.3°F12.9°C 75% 24.0 mph NE38.6 kmh NE 40.0 mph64.4 kmh 29.19 in988.5 mb 0.00 in0.0 mm 0.00 in0.0 mm 2.00 in50.8 mm
01:50 PM 63.1°F17.3°C 55.1°F12.8°C 75% 24.0 mph NE38.6 kmh NE 40.0 mph64.4 kmh 29.19 in988.5 mb 0.00 in0.0 mm 0.00 in0.0 mm 2.00 in50.8 mm
01:51 PM 63.3°F17.4°C 55.6°F13.1°C 76% 24.0 mph NE38.6 kmh NE 39.0 mph62.8 kmh 29.19 in988.5 mb 0.00 in0.0 mm 0.00 in0.0 mm 2.00 in50.8 mm
01:52 PM 63.3°F17.4°C 55.3°F12.9°C 75% 25.0 mph NE40.2 kmh NE 39.0 mph62.8 kmh 29.20 in988.8 mb 0.00 in0.0 mm 0.00 in0.0 mm 2.00 in50.8 mm
01:53 PM 63.1°F17.3°C 54.7°F12.6°C 74% 25.0 mph NE40.2 kmh NE 39.0 mph62.8 kmh 29.19 in988.5 mb 0.00 in0.0 mm 0.00 in0.0 mm 2.00 in50.8 mm
01:54 PM 63.1°F17.3°C 54.7°F12.6°C 74% 25.0 mph NE40.2 kmh NE 43.0 mph69.2 kmh 29.19 in988.5 mb 0.00 in0.0 mm 0.00 in0.0 mm 2.00 in50.8 mm
01:55 PM 63.3°F17.4°C 54.9°F12.7°C 74% 25.0 mph NE40.2 kmh NE 43.0 mph69.2 kmh 29.20 in988.8 mb 0.00 in0.0 mm 0.00 in0.0 mm 2.00 in50.8 mm
01:56 PM 63.3°F17.4°C 54.9°F12.7°C 74% 26.0 mph NE41.8 kmh NE 45.0 mph72.4 kmh 29.20 in988.8 mb 0.00 in0.0 mm 0.00 in0.0 mm 2.00 in50.8 mm
01:57 PM 63.3°F17.4°C 54.9°F12.7°C 74% 26.0 mph NE41.8 kmh NE 45.0 mph72.4 kmh 29.20 in988.8 mb 0.00 in0.0 mm 0.00 in0.0 mm 2.00 in50.8 mm
01:58 PM 63.3°F17.4°C 54.9°F12.7°C 74% 26.0 mph NE41.8 kmh NE 45.0 mph72.4 kmh 29.20 in988.8 mb 0.00 in0.0 mm 0.00 in0.0 mm 2.00 in50.8 mm
01:59 PM 63.1°F17.3°C 55.1°F12.8°C 75% 27.0 mph NE43.5 kmh NE 45.0 mph72.4 kmh 29.20 in988.8 mb 0.00 in0.0 mm 0.00 in0.0 mm 2.00 in50.8 mm
02:00 PM 63.1°F17.3°C 55.4°F13.0°C 76% 27.0 mph NE43.5 kmh NE 45.0 mph72.4 kmh 29.20 in988.8 mb 0.00 in0.0 mm 0.00 in0.0 mm 2.00 in50.8 mm